ARG1394 SACO-TNCA
Flight info
| Callsign | ARG1394 |
|---|---|
| Flight time | 6h 34m |
| Altitude | FL320 |
| Route | DONK1C DONKA UN525 SAL/M079FL330 UN525 CBA/M079FL340 UN525 RCO UL417 PUKEN DCT PIE UW9 ELB UG444 UBLAX DCT AMBAS AMBA2A |
| Aircraft | B38M/M-SDE2E3FGHIRWXY/LB1 |
Departure
| Time | 2026-05-05 16:29 |
|---|---|
| Airport | Ingeniero Aeronáutico Ambrosio L.V. Taravella International Airport (SACO) |
Arrival
| Time | 2026-05-05 23:03 |
|---|---|
| Airport | Queen Beatrix International Airport (TNCA) |
| Time | Latitude | Longitude | Altitude | Speed | Heading |
|---|---|---|---|---|---|
| 2026-05-05 16:04 | -31.31551 | -64.21167 | 1617 ft | 0 kts | 258° |
| 2026-05-05 16:20 | -31.31550 | -64.21161 | 1642 ft | 4 kts | 257° |
| 2026-05-05 16:20 | -31.31529 | -64.21104 | 1621 ft | 4 kts | 231° |
| 2026-05-05 16:21 | -31.31494 | -64.21079 | 1617 ft | 0 kts | 183° |
| 2026-05-05 16:24 | -31.31495 | -64.21079 | 1615 ft | 1 kts | 183° |
| 2026-05-05 16:25 | -31.31529 | -64.21081 | 1618 ft | 9 kts | 183° |
| 2026-05-05 16:25 | -31.31682 | -64.21101 | 1620 ft | 10 kts | 180° |
| 2026-05-05 16:25 | -31.31743 | -64.21076 | 1615 ft | 8 kts | 137° |
| 2026-05-05 16:26 | -31.31904 | -64.21028 | 1621 ft | 16 kts | 180° |
| 2026-05-05 16:26 | -31.32163 | -64.21024 | 1618 ft | 21 kts | 179° |
| 2026-05-05 16:27 | -31.32303 | -64.21020 | 1622 ft | 16 kts | 179° |
| 2026-05-05 16:27 | -31.32403 | -64.21006 | 1618 ft | 12 kts | 137° |
| 2026-05-05 16:27 | -31.32436 | -64.20917 | 1622 ft | 13 kts | 85° |
| 2026-05-05 16:27 | -31.32385 | -64.20835 | 1618 ft | 14 kts | 30° |
| 2026-05-05 16:28 | -31.32292 | -64.20816 | 1621 ft | 14 kts | 359° |
| 2026-05-05 16:28 | -31.32045 | -64.20818 | 1621 ft | 66 kts | 359° |
| 2026-05-05 16:28 | -31.31396 | -64.20829 | 1621 ft | 120 kts | 359° |
| 2026-05-05 16:28 | -31.30410 | -64.20844 | 1621 ft | 162 kts | 359° |
| 2026-05-05 16:29 | -31.29281 | -64.20845 | 2037 ft | 163 kts | 2° |
| 2026-05-05 16:29 | -31.28057 | -64.20841 | 2225 ft | 184 kts | 359° |
| 2026-05-05 16:29 | -31.26789 | -64.20862 | 2852 ft | 183 kts | 360° |
| 2026-05-05 16:29 | -31.25503 | -64.20885 | 3357 ft | 187 kts | 359° |
| 2026-05-05 16:30 | -31.24151 | -64.20910 | 3624 ft | 206 kts | 359° |
| 2026-05-05 16:30 | -31.22662 | -64.20936 | 3969 ft | 224 kts | 359° |
| 2026-05-05 16:30 | -31.21020 | -64.20968 | 4295 ft | 244 kts | 357° |
| 2026-05-05 16:30 | -31.19403 | -64.21448 | 5124 ft | 244 kts | 329° |
| 2026-05-05 16:31 | -31.17994 | -64.22622 | 5641 ft | 258 kts | 322° |
| 2026-05-05 16:31 | -31.16533 | -64.23933 | 6121 ft | 272 kts | 322° |
| 2026-05-05 16:31 | -31.15020 | -64.25302 | 6769 ft | 277 kts | 321° |
| 2026-05-05 16:31 | -31.13494 | -64.26695 | 7468 ft | 281 kts | 321° |
| 2026-05-05 16:32 | -31.11953 | -64.28109 | 8151 ft | 284 kts | 320° |
| 2026-05-05 16:32 | -31.10400 | -64.29537 | 8860 ft | 286 kts | 319° |
| 2026-05-05 16:32 | -31.08836 | -64.30977 | 9553 ft | 288 kts | 319° |
| 2026-05-05 16:32 | -31.07260 | -64.32427 | 10195 ft | 292 kts | 319° |
| 2026-05-05 16:33 | -31.05625 | -64.33931 | 10456 ft | 310 kts | 319° |
| 2026-05-05 16:33 | -31.03885 | -64.35530 | 10663 ft | 327 kts | 319° |
| 2026-05-05 16:33 | -31.01988 | -64.37083 | 10970 ft | 342 kts | 331° |
| 2026-05-05 16:33 | -30.99678 | -64.37855 | 11516 ft | 352 kts | 351° |
| 2026-05-05 16:34 | -30.97220 | -64.37967 | 12102 ft | 357 kts | 355° |
| 2026-05-05 16:34 | -30.94730 | -64.38043 | 12632 ft | 361 kts | 355° |
| 2026-05-05 16:34 | -30.92214 | -64.38112 | 13226 ft | 364 kts | 355° |
| 2026-05-05 16:34 | -30.89678 | -64.38178 | 13801 ft | 367 kts | 355° |
| 2026-05-05 16:35 | -30.87120 | -64.38241 | 14317 ft | 370 kts | 355° |
| 2026-05-05 16:35 | -30.84546 | -64.38304 | 14850 ft | 372 kts | 355° |
| 2026-05-05 16:35 | -30.81948 | -64.38368 | 15345 ft | 376 kts | 355° |
| 2026-05-05 16:35 | -30.79334 | -64.38430 | 15894 ft | 378 kts | 355° |
| 2026-05-05 16:36 | -30.76698 | -64.38493 | 16398 ft | 381 kts | 354° |
| 2026-05-05 16:36 | -30.74043 | -64.38556 | 16948 ft | 384 kts | 354° |
| 2026-05-05 16:36 | -30.71368 | -64.38620 | 17433 ft | 387 kts | 354° |
| 2026-05-05 16:36 | -30.68676 | -64.38684 | 17943 ft | 389 kts | 354° |
| 2026-05-05 16:37 | -30.65963 | -64.38748 | 18400 ft | 392 kts | 354° |
| 2026-05-05 16:37 | -30.63234 | -64.38812 | 18827 ft | 394 kts | 354° |
| 2026-05-05 16:37 | -30.60488 | -64.38877 | 19263 ft | 396 kts | 354° |
| 2026-05-05 16:37 | -30.57732 | -64.38942 | 19681 ft | 398 kts | 354° |
| 2026-05-05 16:38 | -30.54961 | -64.39007 | 20110 ft | 400 kts | 354° |
| 2026-05-05 16:38 | -30.52171 | -64.39072 | 20523 ft | 403 kts | 354° |
| 2026-05-05 16:38 | -30.49366 | -64.39137 | 20933 ft | 405 kts | 354° |
| 2026-05-05 16:38 | -30.46549 | -64.39203 | 21338 ft | 407 kts | 354° |
| 2026-05-05 16:39 | -30.43710 | -64.39269 | 21750 ft | 410 kts | 354° |
| 2026-05-05 16:39 | -30.40862 | -64.39385 | 22127 ft | 409 kts | 348° |
| 2026-05-05 16:39 | -30.38070 | -64.39953 | 22490 ft | 409 kts | 345° |
| 2026-05-05 16:39 | -30.35265 | -64.40549 | 22867 ft | 412 kts | 345° |
| 2026-05-05 16:40 | -30.32443 | -64.41151 | 23256 ft | 415 kts | 345° |
| 2026-05-05 16:40 | -30.29603 | -64.41758 | 23607 ft | 417 kts | 345° |
| 2026-05-05 16:40 | -30.26749 | -64.42369 | 23938 ft | 419 kts | 345° |
| 2026-05-05 16:40 | -30.23880 | -64.42982 | 24259 ft | 421 kts | 345° |
| 2026-05-05 16:41 | -30.20997 | -64.43598 | 24584 ft | 423 kts | 345° |
| 2026-05-05 16:41 | -30.18097 | -64.44217 | 24898 ft | 426 kts | 344° |
| 2026-05-05 16:41 | -30.15184 | -64.44839 | 25215 ft | 428 kts | 344° |
| 2026-05-05 16:41 | -30.12255 | -64.45464 | 25523 ft | 430 kts | 344° |
| 2026-05-05 16:42 | -30.09312 | -64.46091 | 25833 ft | 432 kts | 344° |
| 2026-05-05 16:42 | -30.06358 | -64.46720 | 26149 ft | 434 kts | 344° |
| 2026-05-05 16:42 | -30.03389 | -64.47353 | 26443 ft | 436 kts | 344° |
| 2026-05-05 16:42 | -30.00408 | -64.47987 | 26732 ft | 438 kts | 344° |
| 2026-05-05 16:43 | -29.97412 | -64.48624 | 27030 ft | 440 kts | 344° |
| 2026-05-05 16:43 | -29.94399 | -64.49248 | 27313 ft | 442 kts | 345° |
| 2026-05-05 16:43 | -29.91361 | -64.49819 | 27604 ft | 444 kts | 345° |
| 2026-05-05 16:43 | -29.88313 | -64.50398 | 27886 ft | 446 kts | 345° |
| 2026-05-05 16:44 | -29.85248 | -64.50981 | 28159 ft | 448 kts | 345° |
| 2026-05-05 16:44 | -29.82173 | -64.51567 | 28420 ft | 450 kts | 344° |
| 2026-05-05 16:44 | -29.79082 | -64.52155 | 28679 ft | 452 kts | 344° |
| 2026-05-05 16:44 | -29.75977 | -64.52746 | 28934 ft | 454 kts | 344° |
| 2026-05-05 16:45 | -29.72862 | -64.53339 | 29182 ft | 456 kts | 344° |
| 2026-05-05 16:45 | -29.69733 | -64.53933 | 29446 ft | 458 kts | 344° |
| 2026-05-05 16:45 | -29.66588 | -64.54531 | 29688 ft | 460 kts | 344° |
| 2026-05-05 16:45 | -29.63434 | -64.55130 | 29925 ft | 462 kts | 344° |
| 2026-05-05 16:46 | -29.60268 | -64.55746 | 30145 ft | 462 kts | 343° |
| 2026-05-05 16:46 | -29.57112 | -64.56445 | 30350 ft | 463 kts | 342° |
| 2026-05-05 16:46 | -29.53950 | -64.57142 | 30601 ft | 464 kts | 342° |
| 2026-05-05 16:46 | -29.50791 | -64.57833 | 30893 ft | 463 kts | 342° |
| 2026-05-05 16:47 | -29.47633 | -64.58521 | 31201 ft | 462 kts | 342° |
| 2026-05-05 16:47 | -29.44481 | -64.59208 | 31502 ft | 461 kts | 342° |
| 2026-05-05 16:47 | -29.41335 | -64.59893 | 31803 ft | 461 kts | 342° |
| 2026-05-05 16:47 | -29.38196 | -64.60576 | 32105 ft | 460 kts | 342° |
| 2026-05-05 16:48 | -29.35066 | -64.61257 | 32407 ft | 459 kts | 342° |
| 2026-05-05 16:48 | -29.31941 | -64.61935 | 32712 ft | 457 kts | 341° |
| 2026-05-05 16:48 | -29.28824 | -64.62612 | 32997 ft | 457 kts | 341° |
| 2026-05-05 16:48 | -29.25712 | -64.63287 | 33287 ft | 456 kts | 341° |
| 2026-05-05 16:49 | -29.22607 | -64.63961 | 33574 ft | 455 kts | 341° |
| 2026-05-05 16:49 | -29.19510 | -64.64632 | 33826 ft | 454 kts | 341° |
| 2026-05-05 16:49 | -29.13322 | -64.65972 | 33880 ft | 452 kts | 341° |
| 2026-05-05 16:50 | -29.07168 | -64.67303 | 33884 ft | 451 kts | 341° |
| 2026-05-05 16:50 | -29.01012 | -64.68633 | 33883 ft | 451 kts | 341° |
| 2026-05-05 16:51 | -28.94858 | -64.69960 | 33878 ft | 451 kts | 341° |
| 2026-05-05 16:51 | -28.88702 | -64.71287 | 33878 ft | 451 kts | 341° |
| 2026-05-05 16:52 | -28.82549 | -64.72612 | 33879 ft | 451 kts | 341° |
| 2026-05-05 16:52 | -28.76397 | -64.73934 | 33881 ft | 451 kts | 341° |
| 2026-05-05 16:53 | -28.70245 | -64.75255 | 33880 ft | 451 kts | 341° |
| 2026-05-05 16:53 | -28.64085 | -64.76570 | 33883 ft | 452 kts | 343° |
| 2026-05-05 16:54 | -28.57879 | -64.77720 | 33878 ft | 453 kts | 343° |
| 2026-05-05 16:54 | -28.51673 | -64.78882 | 33881 ft | 453 kts | 343° |
| 2026-05-05 16:55 | -28.45498 | -64.80036 | 33897 ft | 445 kts | 340° |
| 2026-05-05 16:55 | -28.39439 | -64.81171 | 33891 ft | 441 kts | 340° |
| 2026-05-05 16:56 | -28.33383 | -64.82304 | 33890 ft | 442 kts | 340° |
| 2026-05-05 16:56 | -28.27316 | -64.83436 | 33888 ft | 443 kts | 341° |
| 2026-05-05 16:57 | -28.21244 | -64.84568 | 33894 ft | 443 kts | 341° |
| 2026-05-05 16:57 | -28.15168 | -64.85699 | 33893 ft | 443 kts | 341° |
| 2026-05-05 16:58 | -28.09094 | -64.86829 | 33892 ft | 444 kts | 341° |
| 2026-05-05 16:58 | -28.03009 | -64.87960 | 33896 ft | 444 kts | 341° |
| 2026-05-05 16:59 | -27.96924 | -64.89089 | 33900 ft | 444 kts | 341° |
| 2026-05-05 16:59 | -27.90833 | -64.90218 | 33904 ft | 444 kts | 341° |
| 2026-05-05 17:00 | -27.84747 | -64.91345 | 33907 ft | 444 kts | 341° |
| 2026-05-05 17:00 | -27.78652 | -64.92472 | 33907 ft | 445 kts | 341° |
| 2026-05-05 17:01 | -27.72572 | -64.93641 | 33922 ft | 444 kts | 341° |
| 2026-05-05 17:01 | -27.66495 | -64.94841 | 33930 ft | 444 kts | 341° |
| 2026-05-05 17:02 | -27.60412 | -64.96038 | 33937 ft | 445 kts | 341° |
| 2026-05-05 17:02 | -27.54330 | -64.97233 | 33944 ft | 445 kts | 341° |
| 2026-05-05 17:03 | -27.48243 | -64.98428 | 33944 ft | 445 kts | 341° |
| 2026-05-05 17:03 | -27.42148 | -64.99623 | 33942 ft | 445 kts | 341° |
| 2026-05-05 17:04 | -27.36053 | -65.00816 | 33935 ft | 446 kts | 341° |
| 2026-05-05 17:04 | -27.29956 | -65.02009 | 33921 ft | 446 kts | 341° |
| 2026-05-05 17:05 | -27.23852 | -65.03201 | 33913 ft | 446 kts | 341° |
| 2026-05-05 17:05 | -27.17744 | -65.04393 | 33901 ft | 446 kts | 341° |
| 2026-05-05 17:06 | -27.11638 | -65.05584 | 33919 ft | 447 kts | 341° |
| 2026-05-05 17:06 | -27.05524 | -65.06774 | 33933 ft | 447 kts | 341° |
| 2026-05-05 17:07 | -26.99410 | -65.07964 | 33953 ft | 447 kts | 341° |
| 2026-05-05 17:07 | -26.93294 | -65.09152 | 33938 ft | 447 kts | 341° |
| 2026-05-05 17:08 | -26.87171 | -65.10341 | 33940 ft | 448 kts | 341° |
| 2026-05-05 17:08 | -26.81037 | -65.11518 | 33949 ft | 448 kts | 341° |
| 2026-05-05 17:09 | -26.74898 | -65.12694 | 33940 ft | 449 kts | 341° |
| 2026-05-05 17:09 | -26.68757 | -65.13868 | 33936 ft | 448 kts | 342° |
| 2026-05-05 17:10 | -26.62623 | -65.15040 | 33946 ft | 448 kts | 342° |
| 2026-05-05 17:10 | -26.56487 | -65.16211 | 33937 ft | 448 kts | 342° |
| 2026-05-05 17:11 | -26.50358 | -65.17379 | 33945 ft | 448 kts | 342° |
| 2026-05-05 17:11 | -26.44230 | -65.18546 | 33946 ft | 447 kts | 342° |
| 2026-05-05 17:12 | -26.38105 | -65.19712 | 33950 ft | 448 kts | 342° |
| 2026-05-05 17:12 | -26.31971 | -65.20877 | 33958 ft | 448 kts | 342° |
| 2026-05-05 17:13 | -26.25839 | -65.22041 | 33959 ft | 448 kts | 342° |
| 2026-05-05 17:13 | -26.19705 | -65.23204 | 33964 ft | 448 kts | 342° |
| 2026-05-05 17:14 | -26.13570 | -65.24366 | 33968 ft | 448 kts | 342° |
| 2026-05-05 17:14 | -26.07438 | -65.25526 | 33972 ft | 448 kts | 342° |
| 2026-05-05 17:15 | -26.01302 | -65.26686 | 33974 ft | 448 kts | 342° |
| 2026-05-05 17:15 | -25.95168 | -65.27844 | 33989 ft | 448 kts | 342° |
| 2026-05-05 17:16 | -25.89027 | -65.29002 | 33989 ft | 448 kts | 342° |
| 2026-05-05 17:16 | -25.82895 | -65.30157 | 34000 ft | 448 kts | 342° |
| 2026-05-05 17:17 | -25.76753 | -65.31313 | 33987 ft | 448 kts | 342° |
| 2026-05-05 17:17 | -25.70621 | -65.32465 | 34003 ft | 448 kts | 342° |
| 2026-05-05 17:18 | -25.64501 | -65.33614 | 34003 ft | 447 kts | 342° |
| 2026-05-05 17:18 | -25.58378 | -65.34763 | 33969 ft | 448 kts | 342° |
| 2026-05-05 17:19 | -25.52250 | -65.35911 | 34015 ft | 448 kts | 342° |
| 2026-05-05 17:19 | -25.46102 | -65.37062 | 33959 ft | 448 kts | 342° |
| 2026-05-05 17:20 | -25.39950 | -65.38212 | 33977 ft | 450 kts | 343° |
| 2026-05-05 17:20 | -25.33790 | -65.39363 | 33976 ft | 450 kts | 343° |
| 2026-05-05 17:21 | -25.27634 | -65.40512 | 33970 ft | 450 kts | 343° |
| 2026-05-05 17:22 | -25.18377 | -65.42237 | 33992 ft | 450 kts | 343° |
| 2026-05-05 17:22 | -25.12208 | -65.43385 | 34000 ft | 451 kts | 343° |
| 2026-05-05 17:23 | -25.06036 | -65.44533 | 34010 ft | 450 kts | 343° |
| 2026-05-05 17:23 | -24.99867 | -65.45678 | 34015 ft | 451 kts | 343° |
| 2026-05-05 17:24 | -24.93695 | -65.46823 | 34018 ft | 451 kts | 343° |
| 2026-05-05 17:24 | -24.87525 | -65.47968 | 34016 ft | 451 kts | 343° |
| 2026-05-05 17:25 | -24.81209 | -65.48325 | 34042 ft | 461 kts | 353° |
| 2026-05-05 17:25 | -24.79075 | -65.48306 | 34152 ft | 461 kts | 353° |
| 2026-05-05 17:25 | -24.74805 | -65.48260 | 34462 ft | 461 kts | 353° |
| 2026-05-05 17:25 | -24.71614 | -65.48221 | 34688 ft | 460 kts | 353° |
| 2026-05-05 17:26 | -24.68426 | -65.48180 | 34903 ft | 458 kts | 353° |
| 2026-05-05 17:26 | -24.65242 | -65.48141 | 35039 ft | 458 kts | 353° |
| 2026-05-05 17:26 | -24.62064 | -65.48101 | 35026 ft | 458 kts | 353° |
| 2026-05-05 17:27 | -24.55718 | -65.48022 | 35050 ft | 457 kts | 353° |
| 2026-05-05 17:27 | -24.49368 | -65.47942 | 35070 ft | 457 kts | 353° |
| 2026-05-05 17:28 | -24.43026 | -65.47863 | 35046 ft | 457 kts | 353° |
| 2026-05-05 17:28 | -24.36665 | -65.47783 | 35076 ft | 458 kts | 353° |
| 2026-05-05 17:29 | -24.30309 | -65.47703 | 35060 ft | 458 kts | 354° |
| 2026-05-05 17:29 | -24.23948 | -65.47624 | 35060 ft | 458 kts | 353° |
| 2026-05-05 17:30 | -24.17599 | -65.47545 | 35063 ft | 457 kts | 353° |
| 2026-05-05 17:30 | -24.11249 | -65.47465 | 35065 ft | 458 kts | 353° |
| 2026-05-05 17:31 | -24.04895 | -65.47387 | 35061 ft | 457 kts | 353° |
| 2026-05-05 17:31 | -23.98569 | -65.47308 | 35068 ft | 456 kts | 353° |
| 2026-05-05 17:32 | -23.92235 | -65.47230 | 35092 ft | 456 kts | 353° |
| 2026-05-05 17:32 | -23.85913 | -65.47151 | 35052 ft | 455 kts | 353° |
| 2026-05-05 17:33 | -23.79575 | -65.47072 | 35090 ft | 458 kts | 353° |
| 2026-05-05 17:33 | -23.73229 | -65.46993 | 35041 ft | 456 kts | 354° |
| 2026-05-05 17:34 | -23.66882 | -65.46915 | 35120 ft | 458 kts | 354° |
| 2026-05-05 17:34 | -23.60541 | -65.46837 | 35067 ft | 456 kts | 353° |
| 2026-05-05 17:35 | -23.54172 | -65.46758 | 35060 ft | 460 kts | 354° |
| 2026-05-05 17:35 | -23.47818 | -65.46680 | 35084 ft | 457 kts | 353° |
| 2026-05-05 17:36 | -23.41481 | -65.46603 | 35096 ft | 457 kts | 354° |
| 2026-05-05 17:36 | -23.35133 | -65.46526 | 35084 ft | 457 kts | 354° |
| 2026-05-05 17:37 | -23.28786 | -65.46449 | 35096 ft | 457 kts | 354° |
| 2026-05-05 17:37 | -23.22440 | -65.46372 | 35098 ft | 458 kts | 354° |
| 2026-05-05 17:38 | -23.16075 | -65.46294 | 35075 ft | 458 kts | 354° |
| 2026-05-05 17:38 | -23.09712 | -65.46217 | 35082 ft | 459 kts | 354° |
| 2026-05-05 17:39 | -23.03344 | -65.46139 | 35040 ft | 458 kts | 353° |
| 2026-05-05 17:39 | -22.96969 | -65.46062 | 35103 ft | 461 kts | 354° |
| 2026-05-05 17:40 | -22.90579 | -65.45984 | 35079 ft | 459 kts | 354° |
| 2026-05-05 17:40 | -22.84198 | -65.45907 | 35070 ft | 459 kts | 354° |
| 2026-05-05 17:41 | -22.77821 | -65.45830 | 35066 ft | 459 kts | 354° |
| 2026-05-05 17:41 | -22.71440 | -65.45752 | 35073 ft | 460 kts | 354° |
| 2026-05-05 17:42 | -22.65056 | -65.45675 | 35068 ft | 460 kts | 354° |
| 2026-05-05 17:42 | -22.58672 | -65.45598 | 35070 ft | 460 kts | 354° |
| 2026-05-05 17:43 | -22.52291 | -65.45522 | 35065 ft | 459 kts | 354° |
| 2026-05-05 17:43 | -22.45916 | -65.45445 | 35059 ft | 459 kts | 354° |
| 2026-05-05 17:44 | -22.39541 | -65.45368 | 35055 ft | 459 kts | 354° |
| 2026-05-05 17:44 | -22.33174 | -65.45292 | 35050 ft | 458 kts | 354° |
| 2026-05-05 17:45 | -22.26812 | -65.45215 | 35037 ft | 458 kts | 354° |
| 2026-05-05 17:45 | -22.20450 | -65.45139 | 35034 ft | 458 kts | 354° |
| 2026-05-05 17:46 | -22.14084 | -65.45062 | 35023 ft | 459 kts | 355° |
| 2026-05-05 17:46 | -22.07739 | -65.45174 | 35005 ft | 451 kts | 345° |
| 2026-05-05 17:47 | -22.01544 | -65.46159 | 35010 ft | 452 kts | 346° |
| 2026-05-05 17:47 | -21.95339 | -65.47138 | 34993 ft | 451 kts | 346° |
| 2026-05-05 17:48 | -21.89121 | -65.48121 | 35014 ft | 454 kts | 346° |
| 2026-05-05 17:48 | -21.82890 | -65.49105 | 34965 ft | 452 kts | 346° |
| 2026-05-05 17:49 | -21.76664 | -65.50087 | 35002 ft | 455 kts | 346° |
| 2026-05-05 17:49 | -21.70425 | -65.51071 | 34981 ft | 453 kts | 346° |
| 2026-05-05 17:50 | -21.64196 | -65.52053 | 35079 ft | 455 kts | 346° |
| 2026-05-05 17:50 | -21.57950 | -65.53036 | 34967 ft | 453 kts | 346° |
| 2026-05-05 17:51 | -21.51722 | -65.54016 | 34990 ft | 454 kts | 346° |
| 2026-05-05 17:51 | -21.45483 | -65.54996 | 34968 ft | 454 kts | 346° |
| 2026-05-05 17:52 | -21.39243 | -65.55977 | 34981 ft | 454 kts | 346° |
| 2026-05-05 17:52 | -21.32999 | -65.56956 | 34988 ft | 455 kts | 346° |
| 2026-05-05 17:53 | -21.26754 | -65.57935 | 34982 ft | 454 kts | 346° |
| 2026-05-05 17:53 | -21.20509 | -65.58913 | 34978 ft | 454 kts | 346° |
| 2026-05-05 17:54 | -21.14263 | -65.59891 | 34978 ft | 455 kts | 346° |
| 2026-05-05 17:54 | -21.08014 | -65.60868 | 34975 ft | 455 kts | 346° |
| 2026-05-05 17:55 | -21.01764 | -65.61844 | 34972 ft | 455 kts | 346° |
| 2026-05-05 17:55 | -20.95519 | -65.62819 | 34962 ft | 454 kts | 347° |
| 2026-05-05 17:56 | -20.89275 | -65.63793 | 34958 ft | 455 kts | 347° |
| 2026-05-05 17:56 | -20.83020 | -65.64768 | 34954 ft | 455 kts | 347° |
| 2026-05-05 17:57 | -20.76765 | -65.65742 | 34947 ft | 455 kts | 347° |
| 2026-05-05 17:57 | -20.70512 | -65.66715 | 34941 ft | 455 kts | 347° |
| 2026-05-05 17:58 | -20.64250 | -65.67688 | 34938 ft | 455 kts | 347° |
| 2026-05-05 17:58 | -20.57992 | -65.68660 | 34931 ft | 455 kts | 347° |
| 2026-05-05 17:59 | -20.51727 | -65.69632 | 34933 ft | 456 kts | 347° |
| 2026-05-05 17:59 | -20.45452 | -65.70605 | 34945 ft | 457 kts | 347° |
| 2026-05-05 18:00 | -20.39171 | -65.71578 | 34944 ft | 457 kts | 347° |
| 2026-05-05 18:00 | -20.32896 | -65.72550 | 34945 ft | 457 kts | 347° |
| 2026-05-05 18:01 | -20.26619 | -65.73520 | 34945 ft | 457 kts | 347° |
| 2026-05-05 18:01 | -20.20339 | -65.74491 | 34976 ft | 458 kts | 347° |
| 2026-05-05 18:02 | -20.14060 | -65.75461 | 34986 ft | 456 kts | 347° |
| 2026-05-05 18:02 | -20.07780 | -65.76430 | 34942 ft | 456 kts | 347° |
| 2026-05-05 18:03 | -20.01528 | -65.77401 | 35007 ft | 456 kts | 347° |
| 2026-05-05 18:03 | -19.95237 | -65.78383 | 34962 ft | 458 kts | 347° |
| 2026-05-05 18:04 | -19.88937 | -65.79366 | 35016 ft | 458 kts | 347° |
| 2026-05-05 18:04 | -19.82650 | -65.80345 | 34978 ft | 457 kts | 347° |
| 2026-05-05 18:05 | -19.76367 | -65.81324 | 35009 ft | 458 kts | 347° |
| 2026-05-05 18:05 | -19.70079 | -65.82302 | 35010 ft | 457 kts | 347° |
| 2026-05-05 18:06 | -19.63796 | -65.83280 | 35011 ft | 458 kts | 347° |
| 2026-05-05 18:06 | -19.57510 | -65.84260 | 35016 ft | 457 kts | 348° |
| 2026-05-05 18:07 | -19.51225 | -65.85239 | 34999 ft | 457 kts | 347° |
| 2026-05-05 18:07 | -19.44945 | -65.86216 | 35011 ft | 458 kts | 347° |
| 2026-05-05 18:08 | -19.38659 | -65.87194 | 35009 ft | 457 kts | 348° |
| 2026-05-05 18:08 | -19.32396 | -65.88178 | 34998 ft | 456 kts | 347° |
| 2026-05-05 18:09 | -19.26124 | -65.89163 | 34993 ft | 456 kts | 347° |
| 2026-05-05 18:09 | -19.19854 | -65.90147 | 34991 ft | 457 kts | 348° |
| 2026-05-05 18:10 | -19.13565 | -65.91134 | 34995 ft | 457 kts | 348° |
| 2026-05-05 18:10 | -19.07299 | -65.92116 | 34995 ft | 456 kts | 348° |
| 2026-05-05 18:11 | -19.01043 | -65.93096 | 35000 ft | 455 kts | 348° |
| 2026-05-05 18:11 | -18.94787 | -65.94075 | 34990 ft | 456 kts | 348° |
| 2026-05-05 18:12 | -18.88528 | -65.95054 | 34989 ft | 455 kts | 348° |
| 2026-05-05 18:12 | -18.82275 | -65.96031 | 34990 ft | 455 kts | 348° |
| 2026-05-05 18:13 | -18.76019 | -65.97008 | 34987 ft | 456 kts | 348° |
| 2026-05-05 18:13 | -18.69764 | -65.97984 | 34957 ft | 455 kts | 348° |
| 2026-05-05 18:14 | -18.63512 | -65.98958 | 34983 ft | 455 kts | 348° |
| 2026-05-05 18:14 | -18.57268 | -65.99932 | 34972 ft | 455 kts | 348° |
| 2026-05-05 18:15 | -18.51016 | -66.00905 | 34965 ft | 455 kts | 348° |
| 2026-05-05 18:15 | -18.44753 | -66.01886 | 34963 ft | 456 kts | 348° |
| 2026-05-05 18:16 | -18.38499 | -66.02865 | 34965 ft | 455 kts | 348° |
| 2026-05-05 18:16 | -18.32256 | -66.03841 | 34949 ft | 454 kts | 348° |
| 2026-05-05 18:17 | -18.26013 | -66.04817 | 34927 ft | 454 kts | 348° |
| 2026-05-05 18:17 | -18.19770 | -66.05792 | 34935 ft | 455 kts | 348° |
| 2026-05-05 18:18 | -18.13527 | -66.06767 | 34931 ft | 454 kts | 348° |
| 2026-05-05 18:18 | -18.07289 | -66.07740 | 34918 ft | 455 kts | 348° |
| 2026-05-05 18:19 | -18.01046 | -66.08713 | 34927 ft | 455 kts | 348° |
| 2026-05-05 18:19 | -17.94807 | -66.09685 | 34927 ft | 454 kts | 348° |
| 2026-05-05 18:20 | -17.88576 | -66.10655 | 34911 ft | 453 kts | 348° |
| 2026-05-05 18:20 | -17.82342 | -66.11625 | 34914 ft | 454 kts | 348° |
| 2026-05-05 18:21 | -17.76122 | -66.12591 | 34932 ft | 453 kts | 348° |
| 2026-05-05 18:21 | -17.69892 | -66.13564 | 35012 ft | 453 kts | 348° |
| 2026-05-05 18:22 | -17.63657 | -66.14538 | 35107 ft | 453 kts | 348° |
| 2026-05-05 18:22 | -17.57430 | -66.15510 | 35204 ft | 454 kts | 348° |
| 2026-05-05 18:23 | -17.51199 | -66.16482 | 35291 ft | 454 kts | 348° |
| 2026-05-05 18:23 | -17.44967 | -66.17453 | 35290 ft | 454 kts | 348° |
| 2026-05-05 18:24 | -17.38809 | -66.18735 | 35297 ft | 452 kts | 345° |
| 2026-05-05 18:24 | -17.32672 | -66.20149 | 35290 ft | 452 kts | 345° |
| 2026-05-05 18:25 | -17.26533 | -66.21539 | 35247 ft | 452 kts | 345° |
| 2026-05-05 18:25 | -17.20387 | -66.22925 | 35463 ft | 453 kts | 345° |
| 2026-05-05 18:25 | -17.17313 | -66.23618 | 35656 ft | 453 kts | 345° |
| 2026-05-05 18:26 | -17.14241 | -66.24311 | 35850 ft | 452 kts | 345° |
| 2026-05-05 18:26 | -17.11179 | -66.25001 | 36045 ft | 451 kts | 345° |
| 2026-05-05 18:26 | -17.08119 | -66.25691 | 36132 ft | 451 kts | 345° |
| 2026-05-05 18:27 | -17.02019 | -66.27064 | 36108 ft | 448 kts | 345° |
| 2026-05-05 18:27 | -16.95934 | -66.28434 | 36122 ft | 448 kts | 345° |
| 2026-05-05 18:28 | -16.86809 | -66.30510 | 36124 ft | 447 kts | 345° |
| 2026-05-05 18:28 | -16.80733 | -66.31893 | 36116 ft | 448 kts | 345° |
| 2026-05-05 18:29 | -16.74658 | -66.33273 | 36091 ft | 448 kts | 345° |
| 2026-05-05 18:29 | -16.68573 | -66.34656 | 36078 ft | 448 kts | 345° |
| 2026-05-05 18:30 | -16.62495 | -66.36043 | 36067 ft | 448 kts | 345° |
| 2026-05-05 18:30 | -16.56415 | -66.37435 | 36055 ft | 448 kts | 345° |
| 2026-05-05 18:31 | -16.50334 | -66.38825 | 36031 ft | 448 kts | 345° |
| 2026-05-05 18:31 | -16.44262 | -66.40213 | 36012 ft | 448 kts | 345° |
| 2026-05-05 18:32 | -16.38182 | -66.41602 | 36004 ft | 448 kts | 345° |
| 2026-05-05 18:32 | -16.32100 | -66.42990 | 35999 ft | 449 kts | 345° |
| 2026-05-05 18:33 | -16.26021 | -66.44377 | 35985 ft | 448 kts | 346° |
| 2026-05-05 18:33 | -16.19945 | -66.45762 | 35977 ft | 448 kts | 346° |
| 2026-05-05 18:34 | -16.13862 | -66.47148 | 35968 ft | 448 kts | 346° |
| 2026-05-05 18:34 | -16.07783 | -66.48532 | 35948 ft | 448 kts | 346° |
| 2026-05-05 18:35 | -16.01706 | -66.49914 | 35952 ft | 448 kts | 346° |
| 2026-05-05 18:35 | -15.95639 | -66.51294 | 35945 ft | 447 kts | 346° |
| 2026-05-05 18:36 | -15.89570 | -66.52673 | 35938 ft | 447 kts | 346° |
| 2026-05-05 18:36 | -15.83501 | -66.54052 | 35935 ft | 447 kts | 346° |
| 2026-05-05 18:37 | -15.77437 | -66.55428 | 35933 ft | 447 kts | 346° |
| 2026-05-05 18:37 | -15.71372 | -66.56804 | 35935 ft | 447 kts | 346° |
| 2026-05-05 18:38 | -15.65311 | -66.58181 | 35928 ft | 447 kts | 346° |
| 2026-05-05 18:38 | -15.59252 | -66.59569 | 35923 ft | 447 kts | 346° |
| 2026-05-05 18:39 | -15.53197 | -66.60954 | 35924 ft | 446 kts | 346° |
| 2026-05-05 18:39 | -15.47146 | -66.62337 | 35923 ft | 447 kts | 346° |
| 2026-05-05 18:40 | -15.41087 | -66.63722 | 35919 ft | 447 kts | 346° |
| 2026-05-05 18:40 | -15.35025 | -66.65106 | 35916 ft | 447 kts | 346° |
| 2026-05-05 18:41 | -15.28960 | -66.66490 | 35915 ft | 447 kts | 346° |
| 2026-05-05 18:41 | -15.22890 | -66.67874 | 35917 ft | 448 kts | 346° |
| 2026-05-05 18:42 | -15.16820 | -66.69258 | 35911 ft | 448 kts | 346° |
| 2026-05-05 18:42 | -15.10748 | -66.70641 | 35909 ft | 448 kts | 346° |
| 2026-05-05 18:43 | -15.04672 | -66.72024 | 35911 ft | 448 kts | 346° |
| 2026-05-05 18:43 | -14.98593 | -66.73408 | 35910 ft | 448 kts | 346° |
| 2026-05-05 18:44 | -14.92511 | -66.74791 | 35908 ft | 448 kts | 346° |
| 2026-05-05 18:44 | -14.86429 | -66.76173 | 35910 ft | 448 kts | 346° |
| 2026-05-05 18:45 | -14.80343 | -66.77555 | 35908 ft | 449 kts | 346° |
| 2026-05-05 18:45 | -14.74258 | -66.78937 | 35908 ft | 449 kts | 346° |
| 2026-05-05 18:46 | -14.68174 | -66.80318 | 35910 ft | 449 kts | 346° |
| 2026-05-05 18:46 | -14.62089 | -66.81697 | 35907 ft | 449 kts | 346° |
| 2026-05-05 18:47 | -14.56006 | -66.83076 | 35911 ft | 449 kts | 346° |
| 2026-05-05 18:47 | -14.49925 | -66.84453 | 35912 ft | 448 kts | 346° |
| 2026-05-05 18:48 | -14.43847 | -66.85846 | 35914 ft | 448 kts | 346° |
| 2026-05-05 18:48 | -14.37768 | -66.87240 | 35911 ft | 448 kts | 346° |
| 2026-05-05 18:49 | -14.31690 | -66.88633 | 35910 ft | 448 kts | 346° |
| 2026-05-05 18:49 | -14.25613 | -66.90024 | 35917 ft | 448 kts | 347° |
| 2026-05-05 18:50 | -14.19535 | -66.91416 | 35911 ft | 448 kts | 347° |
| 2026-05-05 18:50 | -14.13462 | -66.92805 | 35918 ft | 448 kts | 347° |
| 2026-05-05 18:51 | -14.07381 | -66.94195 | 35917 ft | 448 kts | 347° |
| 2026-05-05 18:51 | -14.01308 | -66.95583 | 35915 ft | 448 kts | 347° |
| 2026-05-05 18:52 | -13.95229 | -66.96971 | 35919 ft | 448 kts | 347° |
| 2026-05-05 18:52 | -13.89148 | -66.98359 | 35924 ft | 448 kts | 347° |
| 2026-05-05 18:53 | -13.83067 | -66.99746 | 35923 ft | 449 kts | 347° |
| 2026-05-05 18:53 | -13.76987 | -67.01133 | 35919 ft | 448 kts | 347° |
| 2026-05-05 18:54 | -13.70904 | -67.02519 | 35921 ft | 449 kts | 347° |
| 2026-05-05 18:54 | -13.64820 | -67.03905 | 35920 ft | 449 kts | 347° |
| 2026-05-05 18:55 | -13.58730 | -67.05291 | 35924 ft | 449 kts | 347° |
| 2026-05-05 18:55 | -13.52638 | -67.06677 | 35926 ft | 449 kts | 347° |
| 2026-05-05 18:56 | -13.46547 | -67.08062 | 35921 ft | 449 kts | 347° |
| 2026-05-05 18:56 | -13.40455 | -67.09447 | 35924 ft | 449 kts | 347° |
| 2026-05-05 18:57 | -13.34364 | -67.10831 | 35924 ft | 449 kts | 347° |
| 2026-05-05 18:57 | -13.28269 | -67.12215 | 35923 ft | 450 kts | 347° |
| 2026-05-05 18:58 | -13.22172 | -67.13598 | 35923 ft | 450 kts | 347° |
| 2026-05-05 18:58 | -13.16068 | -67.14983 | 35924 ft | 450 kts | 347° |
| 2026-05-05 18:59 | -13.09962 | -67.16367 | 35928 ft | 450 kts | 347° |
| 2026-05-05 18:59 | -13.03851 | -67.17752 | 35921 ft | 451 kts | 347° |
| 2026-05-05 19:00 | -12.97735 | -67.19137 | 35923 ft | 451 kts | 347° |
| 2026-05-05 19:00 | -12.91622 | -67.20521 | 35924 ft | 451 kts | 347° |
| 2026-05-05 19:01 | -12.85509 | -67.21904 | 35922 ft | 451 kts | 347° |
| 2026-05-05 19:01 | -12.79392 | -67.23296 | 35917 ft | 451 kts | 347° |
| 2026-05-05 19:02 | -12.73272 | -67.24702 | 35922 ft | 451 kts | 347° |
| 2026-05-05 19:02 | -12.67156 | -67.26105 | 35920 ft | 452 kts | 347° |
| 2026-05-05 19:03 | -12.61035 | -67.27509 | 35920 ft | 452 kts | 347° |
| 2026-05-05 19:03 | -12.54911 | -67.28913 | 35921 ft | 452 kts | 347° |
| 2026-05-05 19:04 | -12.48788 | -67.30316 | 35916 ft | 452 kts | 347° |
| 2026-05-05 19:04 | -12.42665 | -67.31719 | 35925 ft | 452 kts | 347° |
| 2026-05-05 19:05 | -12.36542 | -67.33121 | 35923 ft | 452 kts | 347° |
| 2026-05-05 19:05 | -12.30420 | -67.34521 | 35924 ft | 452 kts | 347° |
| 2026-05-05 19:06 | -12.24303 | -67.35920 | 35923 ft | 452 kts | 347° |
| 2026-05-05 19:06 | -12.18186 | -67.37319 | 35927 ft | 451 kts | 347° |
| 2026-05-05 19:07 | -12.12066 | -67.38717 | 35923 ft | 451 kts | 347° |
| 2026-05-05 19:07 | -12.05954 | -67.40113 | 35926 ft | 451 kts | 347° |
| 2026-05-05 19:08 | -11.99845 | -67.41507 | 35927 ft | 451 kts | 347° |
| 2026-05-05 19:08 | -11.93738 | -67.42901 | 35930 ft | 450 kts | 347° |
| 2026-05-05 19:09 | -11.87635 | -67.44292 | 35936 ft | 451 kts | 347° |
| 2026-05-05 19:09 | -11.81528 | -67.45684 | 35932 ft | 450 kts | 347° |
| 2026-05-05 19:10 | -11.75421 | -67.47076 | 35933 ft | 450 kts | 347° |
| 2026-05-05 19:10 | -11.69321 | -67.48465 | 35935 ft | 450 kts | 347° |
| 2026-05-05 19:11 | -11.63217 | -67.49855 | 35938 ft | 450 kts | 347° |
| 2026-05-05 19:11 | -11.57110 | -67.51244 | 35938 ft | 450 kts | 347° |
| 2026-05-05 19:12 | -11.51007 | -67.52632 | 35939 ft | 451 kts | 347° |
| 2026-05-05 19:12 | -11.44894 | -67.54022 | 35941 ft | 451 kts | 347° |
| 2026-05-05 19:13 | -11.38781 | -67.55411 | 35942 ft | 451 kts | 347° |
| 2026-05-05 19:13 | -11.32665 | -67.56800 | 35938 ft | 452 kts | 348° |
| 2026-05-05 19:14 | -11.26542 | -67.58191 | 35939 ft | 452 kts | 348° |
| 2026-05-05 19:14 | -11.20419 | -67.59580 | 35940 ft | 452 kts | 347° |
| 2026-05-05 19:15 | -11.14294 | -67.60969 | 35939 ft | 452 kts | 348° |
| 2026-05-05 19:15 | -11.08170 | -67.62358 | 35937 ft | 452 kts | 348° |
| 2026-05-05 19:16 | -11.02044 | -67.63746 | 35934 ft | 452 kts | 348° |
| 2026-05-05 19:16 | -10.95918 | -67.65134 | 35936 ft | 452 kts | 348° |
| 2026-05-05 19:17 | -10.89786 | -67.66523 | 35936 ft | 452 kts | 348° |
| 2026-05-05 19:17 | -10.83657 | -67.67910 | 35936 ft | 452 kts | 348° |
| 2026-05-05 19:18 | -10.77529 | -67.69297 | 35935 ft | 452 kts | 348° |
| 2026-05-05 19:18 | -10.71399 | -67.70684 | 35935 ft | 452 kts | 348° |
| 2026-05-05 19:19 | -10.65283 | -67.72126 | 35932 ft | 452 kts | 347° |
| 2026-05-05 19:19 | -10.59172 | -67.73580 | 35931 ft | 452 kts | 347° |
| 2026-05-05 19:20 | -10.53064 | -67.75030 | 35933 ft | 452 kts | 347° |
| 2026-05-05 19:20 | -10.46956 | -67.76479 | 35925 ft | 451 kts | 347° |
| 2026-05-05 19:21 | -10.40853 | -67.77927 | 35928 ft | 451 kts | 347° |
| 2026-05-05 19:21 | -10.34750 | -67.79375 | 35926 ft | 451 kts | 347° |
| 2026-05-05 19:22 | -10.28652 | -67.80821 | 35927 ft | 451 kts | 347° |
| 2026-05-05 19:22 | -10.22557 | -67.82265 | 35926 ft | 451 kts | 347° |
| 2026-05-05 19:23 | -10.16463 | -67.83708 | 35933 ft | 450 kts | 347° |
| 2026-05-05 19:23 | -10.10375 | -67.85150 | 35947 ft | 450 kts | 347° |
| 2026-05-05 19:24 | -10.04292 | -67.86590 | 35953 ft | 450 kts | 347° |
| 2026-05-05 19:24 | -9.98204 | -67.88030 | 35965 ft | 450 kts | 347° |
| 2026-05-05 19:25 | -9.92123 | -67.89468 | 35964 ft | 450 kts | 347° |
| 2026-05-05 19:25 | -9.86070 | -67.91021 | 35965 ft | 450 kts | 345° |
| 2026-05-05 19:26 | -9.80061 | -67.92736 | 35966 ft | 450 kts | 345° |
| 2026-05-05 19:26 | -9.74044 | -67.94434 | 35959 ft | 450 kts | 345° |
| 2026-05-05 19:27 | -9.68032 | -67.96128 | 35953 ft | 449 kts | 345° |
| 2026-05-05 19:27 | -9.62017 | -67.97821 | 35939 ft | 449 kts | 345° |
| 2026-05-05 19:28 | -9.56001 | -67.99515 | 35925 ft | 449 kts | 345° |
| 2026-05-05 19:28 | -9.49991 | -68.01206 | 35921 ft | 449 kts | 345° |
| 2026-05-05 19:29 | -9.43977 | -68.02898 | 35922 ft | 449 kts | 345° |
| 2026-05-05 19:29 | -9.37962 | -68.04589 | 35921 ft | 449 kts | 345° |
| 2026-05-05 19:30 | -9.31948 | -68.06280 | 35920 ft | 449 kts | 345° |
| 2026-05-05 19:30 | -9.25932 | -68.07970 | 35925 ft | 450 kts | 345° |
| 2026-05-05 19:31 | -9.19938 | -68.09736 | 35920 ft | 450 kts | 344° |
| 2026-05-05 19:31 | -9.13948 | -68.11533 | 35923 ft | 450 kts | 344° |
| 2026-05-05 19:32 | -9.07959 | -68.13325 | 35923 ft | 450 kts | 344° |
| 2026-05-05 19:32 | -9.01965 | -68.15118 | 35925 ft | 450 kts | 344° |
| 2026-05-05 19:33 | -8.95969 | -68.16910 | 35922 ft | 450 kts | 344° |
| 2026-05-05 19:33 | -8.89976 | -68.18701 | 35926 ft | 450 kts | 344° |
| 2026-05-05 19:34 | -8.83980 | -68.20493 | 35922 ft | 450 kts | 344° |
| 2026-05-05 19:35 | -8.74985 | -68.23180 | 35931 ft | 450 kts | 344° |
| 2026-05-05 19:35 | -8.68987 | -68.24970 | 35929 ft | 450 kts | 344° |
| 2026-05-05 19:36 | -8.62991 | -68.26759 | 35929 ft | 450 kts | 345° |
| 2026-05-05 19:36 | -8.56989 | -68.28550 | 35929 ft | 450 kts | 345° |
| 2026-05-05 19:37 | -8.50988 | -68.30340 | 35925 ft | 451 kts | 345° |
| 2026-05-05 19:37 | -8.44989 | -68.32128 | 35928 ft | 451 kts | 345° |
| 2026-05-05 19:38 | -8.38983 | -68.33919 | 35929 ft | 451 kts | 345° |
| 2026-05-05 19:38 | -8.32981 | -68.35707 | 35932 ft | 451 kts | 345° |
| 2026-05-05 19:39 | -8.26974 | -68.37496 | 35931 ft | 451 kts | 345° |
| 2026-05-05 19:39 | -8.20969 | -68.39284 | 35936 ft | 451 kts | 345° |
| 2026-05-05 19:40 | -8.14963 | -68.41072 | 35935 ft | 451 kts | 345° |
| 2026-05-05 19:40 | -8.08957 | -68.42859 | 35936 ft | 451 kts | 345° |
| 2026-05-05 19:41 | -8.02944 | -68.44648 | 35937 ft | 451 kts | 345° |
| 2026-05-05 19:41 | -7.96936 | -68.46434 | 35937 ft | 451 kts | 345° |
| 2026-05-05 19:42 | -7.90923 | -68.48222 | 35936 ft | 451 kts | 345° |
| 2026-05-05 19:42 | -7.84913 | -68.50008 | 35932 ft | 451 kts | 345° |
| 2026-05-05 19:43 | -7.78901 | -68.51794 | 35934 ft | 452 kts | 345° |
| 2026-05-05 19:43 | -7.72884 | -68.53582 | 35934 ft | 452 kts | 345° |
| 2026-05-05 19:44 | -7.66865 | -68.55369 | 35935 ft | 452 kts | 345° |
| 2026-05-05 19:44 | -7.60841 | -68.57154 | 35937 ft | 452 kts | 345° |
| 2026-05-05 19:45 | -7.54813 | -68.58938 | 35936 ft | 453 kts | 345° |
| 2026-05-05 19:45 | -7.48777 | -68.60724 | 35939 ft | 453 kts | 345° |
| 2026-05-05 19:46 | -7.42742 | -68.62509 | 35935 ft | 453 kts | 345° |
| 2026-05-05 19:46 | -7.36694 | -68.64296 | 35933 ft | 454 kts | 345° |
| 2026-05-05 19:47 | -7.30651 | -68.66083 | 35933 ft | 454 kts | 345° |
| 2026-05-05 19:47 | -7.24600 | -68.67871 | 35932 ft | 454 kts | 345° |
| 2026-05-05 19:48 | -7.18545 | -68.69660 | 35941 ft | 454 kts | 345° |
| 2026-05-05 19:48 | -7.12486 | -68.71449 | 35936 ft | 455 kts | 345° |
| 2026-05-05 19:49 | -7.06424 | -68.73239 | 35934 ft | 455 kts | 345° |
| 2026-05-05 19:49 | -7.00360 | -68.75029 | 35935 ft | 455 kts | 345° |
| 2026-05-05 19:50 | -6.94291 | -68.76820 | 35934 ft | 456 kts | 345° |
| 2026-05-05 19:50 | -6.88218 | -68.78611 | 35934 ft | 456 kts | 345° |
| 2026-05-05 19:51 | -6.82136 | -68.80405 | 35933 ft | 456 kts | 345° |
| 2026-05-05 19:51 | -6.76058 | -68.82197 | 35938 ft | 457 kts | 346° |
| 2026-05-05 19:52 | -6.69969 | -68.83992 | 35934 ft | 457 kts | 346° |
| 2026-05-05 19:52 | -6.63885 | -68.85783 | 35941 ft | 457 kts | 346° |
| 2026-05-05 19:53 | -6.57796 | -68.87572 | 35932 ft | 457 kts | 346° |
| 2026-05-05 19:53 | -6.51712 | -68.89374 | 35944 ft | 457 kts | 345° |
| 2026-05-05 19:54 | -6.45628 | -68.91176 | 35941 ft | 457 kts | 345° |
| 2026-05-05 19:54 | -6.39544 | -68.92978 | 35940 ft | 457 kts | 345° |
| 2026-05-05 19:55 | -6.33460 | -68.94779 | 35935 ft | 457 kts | 345° |
| 2026-05-05 19:55 | -6.27378 | -68.96579 | 35942 ft | 457 kts | 345° |
| 2026-05-05 19:56 | -6.21292 | -68.98380 | 35943 ft | 457 kts | 345° |
| 2026-05-05 19:56 | -6.15203 | -69.00181 | 35938 ft | 457 kts | 345° |
| 2026-05-05 19:57 | -6.09106 | -69.01984 | 35937 ft | 458 kts | 345° |
| 2026-05-05 19:57 | -6.03006 | -69.03787 | 35936 ft | 458 kts | 345° |
| 2026-05-05 19:58 | -5.96902 | -69.05592 | 35940 ft | 458 kts | 345° |
| 2026-05-05 19:58 | -5.90798 | -69.07396 | 35938 ft | 458 kts | 345° |
| 2026-05-05 19:59 | -5.84691 | -69.09200 | 35938 ft | 459 kts | 345° |
| 2026-05-05 19:59 | -5.78571 | -69.11008 | 35946 ft | 459 kts | 345° |
| 2026-05-05 20:00 | -5.72447 | -69.12817 | 35939 ft | 460 kts | 345° |
| 2026-05-05 20:00 | -5.66319 | -69.14626 | 35939 ft | 460 kts | 345° |
| 2026-05-05 20:01 | -5.60183 | -69.16437 | 35942 ft | 461 kts | 345° |
| 2026-05-05 20:01 | -5.54033 | -69.18253 | 35940 ft | 462 kts | 345° |
| 2026-05-05 20:02 | -5.47884 | -69.20067 | 35936 ft | 462 kts | 345° |
| 2026-05-05 20:02 | -5.41725 | -69.21884 | 35936 ft | 463 kts | 345° |
| 2026-05-05 20:03 | -5.35558 | -69.23703 | 35939 ft | 463 kts | 345° |
| 2026-05-05 20:03 | -5.29383 | -69.25524 | 35935 ft | 464 kts | 345° |
| 2026-05-05 20:04 | -5.23201 | -69.27347 | 35938 ft | 464 kts | 346° |
| 2026-05-05 20:04 | -5.17013 | -69.29170 | 35931 ft | 465 kts | 346° |
| 2026-05-05 20:05 | -5.10815 | -69.30997 | 35941 ft | 465 kts | 346° |
| 2026-05-05 20:05 | -5.04622 | -69.32822 | 35943 ft | 465 kts | 346° |
| 2026-05-05 20:06 | -4.98435 | -69.34644 | 35938 ft | 464 kts | 346° |
| 2026-05-05 20:06 | -4.92253 | -69.36465 | 35939 ft | 464 kts | 346° |
| 2026-05-05 20:07 | -4.86077 | -69.38284 | 35938 ft | 463 kts | 346° |
| 2026-05-05 20:07 | -4.79906 | -69.40101 | 35940 ft | 463 kts | 346° |
| 2026-05-05 20:08 | -4.73744 | -69.41915 | 35938 ft | 462 kts | 346° |
| 2026-05-05 20:08 | -4.67594 | -69.43740 | 35938 ft | 462 kts | 345° |
| 2026-05-05 20:09 | -4.61443 | -69.45586 | 35938 ft | 462 kts | 345° |
| 2026-05-05 20:09 | -4.55299 | -69.47427 | 35939 ft | 462 kts | 345° |
| 2026-05-05 20:10 | -4.49159 | -69.49267 | 35933 ft | 462 kts | 345° |
| 2026-05-05 20:10 | -4.43016 | -69.51107 | 35937 ft | 462 kts | 345° |
| 2026-05-05 20:11 | -4.36876 | -69.52946 | 35936 ft | 461 kts | 345° |
| 2026-05-05 20:11 | -4.30740 | -69.54784 | 35932 ft | 461 kts | 345° |
| 2026-05-05 20:12 | -4.24599 | -69.56623 | 35936 ft | 462 kts | 345° |
| 2026-05-05 20:12 | -4.18448 | -69.58465 | 35934 ft | 462 kts | 345° |
| 2026-05-05 20:13 | -4.12295 | -69.60308 | 35931 ft | 463 kts | 345° |
| 2026-05-05 20:13 | -4.06135 | -69.62155 | 35931 ft | 463 kts | 345° |
| 2026-05-05 20:14 | -3.99976 | -69.64001 | 35933 ft | 463 kts | 345° |
| 2026-05-05 20:14 | -3.93811 | -69.65849 | 35933 ft | 464 kts | 345° |
| 2026-05-05 20:15 | -3.87641 | -69.67697 | 35939 ft | 464 kts | 345° |
| 2026-05-05 20:15 | -3.81472 | -69.69546 | 35928 ft | 463 kts | 345° |
| 2026-05-05 20:16 | -3.75308 | -69.71392 | 35934 ft | 464 kts | 345° |
| 2026-05-05 20:16 | -3.69136 | -69.73241 | 35934 ft | 464 kts | 345° |
| 2026-05-05 20:17 | -3.62965 | -69.75089 | 35935 ft | 464 kts | 345° |
| 2026-05-05 20:17 | -3.56798 | -69.76936 | 35932 ft | 464 kts | 345° |
| 2026-05-05 20:18 | -3.50627 | -69.78784 | 35935 ft | 464 kts | 345° |
| 2026-05-05 20:18 | -3.44442 | -69.80607 | 35933 ft | 465 kts | 346° |
| 2026-05-05 20:19 | -3.38247 | -69.82429 | 35929 ft | 465 kts | 346° |
| 2026-05-05 20:19 | -3.32040 | -69.84255 | 35929 ft | 466 kts | 346° |
| 2026-05-05 20:20 | -3.25834 | -69.86080 | 35926 ft | 466 kts | 345° |
| 2026-05-05 20:20 | -3.19618 | -69.87908 | 35932 ft | 467 kts | 345° |
| 2026-05-05 20:21 | -3.13405 | -69.89734 | 35927 ft | 467 kts | 345° |
| 2026-05-05 20:21 | -3.07184 | -69.91563 | 35926 ft | 467 kts | 345° |
| 2026-05-05 20:22 | -3.00967 | -69.93391 | 35931 ft | 467 kts | 345° |
| 2026-05-05 20:22 | -2.94750 | -69.95218 | 35931 ft | 467 kts | 345° |
| 2026-05-05 20:23 | -2.88530 | -69.97046 | 35930 ft | 467 kts | 345° |
| 2026-05-05 20:23 | -2.82312 | -69.98873 | 35926 ft | 467 kts | 345° |
| 2026-05-05 20:24 | -2.76093 | -70.00700 | 35927 ft | 467 kts | 345° |
| 2026-05-05 20:24 | -2.69892 | -70.02584 | 35925 ft | 467 kts | 343° |
| 2026-05-05 20:25 | -2.63712 | -70.04569 | 35923 ft | 467 kts | 344° |
| 2026-05-05 20:25 | -2.57531 | -70.06542 | 35929 ft | 468 kts | 344° |
| 2026-05-05 20:26 | -2.51346 | -70.08515 | 35921 ft | 468 kts | 344° |
| 2026-05-05 20:26 | -2.45155 | -70.10489 | 35924 ft | 468 kts | 344° |
| 2026-05-05 20:27 | -2.38965 | -70.12463 | 35924 ft | 468 kts | 344° |
| 2026-05-05 20:27 | -2.32775 | -70.14437 | 35921 ft | 468 kts | 344° |
| 2026-05-05 20:28 | -2.26580 | -70.16413 | 35916 ft | 468 kts | 344° |
| 2026-05-05 20:28 | -2.20391 | -70.18386 | 35918 ft | 468 kts | 344° |
| 2026-05-05 20:29 | -2.14199 | -70.20360 | 35917 ft | 468 kts | 344° |
| 2026-05-05 20:29 | -2.08007 | -70.22334 | 35919 ft | 468 kts | 344° |
| 2026-05-05 20:30 | -2.01816 | -70.24307 | 35917 ft | 468 kts | 344° |
| 2026-05-05 20:30 | -1.95630 | -70.26279 | 35914 ft | 468 kts | 344° |
| 2026-05-05 20:31 | -1.89445 | -70.28250 | 35908 ft | 468 kts | 344° |
| 2026-05-05 20:31 | -1.83256 | -70.30223 | 35913 ft | 468 kts | 344° |
| 2026-05-05 20:32 | -1.77071 | -70.32194 | 35910 ft | 467 kts | 344° |
| 2026-05-05 20:32 | -1.70889 | -70.34164 | 35908 ft | 467 kts | 344° |
| 2026-05-05 20:33 | -1.64712 | -70.36132 | 35911 ft | 467 kts | 344° |
| 2026-05-05 20:33 | -1.58531 | -70.38101 | 35909 ft | 467 kts | 344° |
| 2026-05-05 20:34 | -1.52357 | -70.40068 | 35908 ft | 467 kts | 344° |
| 2026-05-05 20:34 | -1.46182 | -70.42035 | 35906 ft | 467 kts | 344° |
| 2026-05-05 20:35 | -1.40004 | -70.44003 | 35908 ft | 467 kts | 344° |
| 2026-05-05 20:35 | -1.33829 | -70.45970 | 35911 ft | 467 kts | 344° |
| 2026-05-05 20:36 | -1.27648 | -70.47938 | 35913 ft | 467 kts | 344° |
| 2026-05-05 20:36 | -1.21470 | -70.49906 | 35908 ft | 467 kts | 344° |
| 2026-05-05 20:37 | -1.15293 | -70.51873 | 35908 ft | 467 kts | 344° |
| 2026-05-05 20:37 | -1.09116 | -70.53840 | 35909 ft | 467 kts | 344° |
| 2026-05-05 20:38 | -1.02942 | -70.55806 | 35907 ft | 467 kts | 343° |
| 2026-05-05 20:38 | -0.96770 | -70.57772 | 35903 ft | 466 kts | 343° |
| 2026-05-05 20:39 | -0.90598 | -70.59737 | 35909 ft | 466 kts | 343° |
| 2026-05-05 20:39 | -0.84430 | -70.61701 | 35910 ft | 466 kts | 343° |
| 2026-05-05 20:40 | -0.78266 | -70.63664 | 35909 ft | 466 kts | 343° |
| 2026-05-05 20:40 | -0.72099 | -70.65627 | 35904 ft | 466 kts | 343° |
| 2026-05-05 20:41 | -0.65937 | -70.67589 | 35910 ft | 466 kts | 343° |
| 2026-05-05 20:41 | -0.59773 | -70.69551 | 35906 ft | 466 kts | 343° |
| 2026-05-05 20:42 | -0.53603 | -70.71515 | 35903 ft | 466 kts | 343° |
| 2026-05-05 20:42 | -0.47439 | -70.73478 | 35909 ft | 466 kts | 343° |
| 2026-05-05 20:43 | -0.41273 | -70.75440 | 35910 ft | 466 kts | 343° |
| 2026-05-05 20:43 | -0.35103 | -70.77405 | 35903 ft | 466 kts | 343° |
| 2026-05-05 20:44 | -0.28936 | -70.79368 | 35908 ft | 466 kts | 343° |
| 2026-05-05 20:44 | -0.22769 | -70.81331 | 35905 ft | 466 kts | 343° |
| 2026-05-05 20:45 | -0.13525 | -70.84274 | 35911 ft | 466 kts | 343° |
| 2026-05-05 20:45 | -0.07352 | -70.86239 | 35909 ft | 466 kts | 343° |
| 2026-05-05 20:46 | -0.01182 | -70.88203 | 35914 ft | 466 kts | 343° |
| 2026-05-05 20:46 | 0.04989 | -70.90167 | 35902 ft | 466 kts | 343° |
| 2026-05-05 20:47 | 0.11159 | -70.92131 | 35904 ft | 467 kts | 343° |
| 2026-05-05 20:47 | 0.17336 | -70.94098 | 35906 ft | 467 kts | 343° |
| 2026-05-05 20:48 | 0.23504 | -70.96062 | 35906 ft | 466 kts | 343° |
| 2026-05-05 20:48 | 0.29675 | -70.98026 | 35902 ft | 466 kts | 343° |
| 2026-05-05 20:49 | 0.35844 | -70.99990 | 35906 ft | 466 kts | 343° |
| 2026-05-05 20:49 | 0.42009 | -71.01952 | 35904 ft | 466 kts | 343° |
| 2026-05-05 20:50 | 0.48174 | -71.03915 | 35900 ft | 466 kts | 343° |
| 2026-05-05 20:50 | 0.54343 | -71.05879 | 35906 ft | 467 kts | 343° |
| 2026-05-05 20:51 | 0.57435 | -71.06863 | 36071 ft | 467 kts | 343° |
| 2026-05-05 20:51 | 0.60522 | -71.07846 | 36279 ft | 467 kts | 343° |
| 2026-05-05 20:51 | 0.63612 | -71.08830 | 36486 ft | 466 kts | 343° |
| 2026-05-05 20:51 | 0.66695 | -71.09811 | 36696 ft | 466 kts | 343° |
| 2026-05-05 20:52 | 0.69774 | -71.10792 | 36898 ft | 466 kts | 343° |
| 2026-05-05 20:52 | 0.72855 | -71.11772 | 37102 ft | 465 kts | 343° |
| 2026-05-05 20:52 | 0.75930 | -71.12752 | 37292 ft | 464 kts | 343° |
| 2026-05-05 20:52 | 0.78997 | -71.13728 | 37510 ft | 464 kts | 343° |
| 2026-05-05 20:53 | 0.82066 | -71.14705 | 37710 ft | 463 kts | 343° |
| 2026-05-05 20:53 | 0.85122 | -71.15678 | 37881 ft | 462 kts | 343° |
| 2026-05-05 20:53 | 0.91236 | -71.17625 | 37897 ft | 460 kts | 343° |
| 2026-05-05 20:54 | 0.97322 | -71.19563 | 37902 ft | 461 kts | 343° |
| 2026-05-05 20:54 | 1.03419 | -71.21504 | 37903 ft | 461 kts | 343° |
| 2026-05-05 20:55 | 1.09518 | -71.23447 | 37901 ft | 461 kts | 343° |
| 2026-05-05 20:55 | 1.15620 | -71.25390 | 37898 ft | 461 kts | 343° |
| 2026-05-05 20:56 | 1.21721 | -71.27333 | 37904 ft | 461 kts | 343° |
| 2026-05-05 20:56 | 1.27820 | -71.29275 | 37901 ft | 461 kts | 343° |
| 2026-05-05 20:57 | 1.33920 | -71.31218 | 37899 ft | 461 kts | 343° |
| 2026-05-05 20:57 | 1.40013 | -71.33159 | 37896 ft | 461 kts | 343° |
| 2026-05-05 20:58 | 1.46109 | -71.35101 | 37900 ft | 460 kts | 343° |
| 2026-05-05 20:58 | 1.52198 | -71.37041 | 37902 ft | 460 kts | 343° |
| 2026-05-05 20:59 | 1.58284 | -71.38979 | 37901 ft | 460 kts | 343° |
| 2026-05-05 20:59 | 1.64374 | -71.40919 | 37897 ft | 460 kts | 343° |
| 2026-05-05 21:00 | 1.70456 | -71.42857 | 37900 ft | 460 kts | 343° |
| 2026-05-05 21:00 | 1.76537 | -71.44795 | 37921 ft | 460 kts | 343° |
| 2026-05-05 21:01 | 1.82620 | -71.46734 | 37889 ft | 459 kts | 343° |
| 2026-05-05 21:01 | 1.88704 | -71.48672 | 37901 ft | 460 kts | 343° |
| 2026-05-05 21:02 | 1.94791 | -71.50612 | 37897 ft | 460 kts | 343° |
| 2026-05-05 21:02 | 2.00881 | -71.52553 | 37895 ft | 460 kts | 343° |
| 2026-05-05 21:03 | 2.06970 | -71.54494 | 37897 ft | 460 kts | 343° |
| 2026-05-05 21:03 | 2.13055 | -71.56434 | 37898 ft | 460 kts | 343° |
| 2026-05-05 21:04 | 2.19143 | -71.58375 | 37898 ft | 460 kts | 343° |
| 2026-05-05 21:04 | 2.25233 | -71.60316 | 37900 ft | 460 kts | 343° |
| 2026-05-05 21:05 | 2.31319 | -71.62257 | 37896 ft | 460 kts | 343° |
| 2026-05-05 21:05 | 2.37405 | -71.64198 | 37896 ft | 460 kts | 343° |
| 2026-05-05 21:06 | 2.43488 | -71.66138 | 37899 ft | 460 kts | 343° |
| 2026-05-05 21:06 | 2.49575 | -71.68079 | 37897 ft | 460 kts | 343° |
| 2026-05-05 21:07 | 2.55659 | -71.70019 | 37896 ft | 460 kts | 343° |
| 2026-05-05 21:07 | 2.61742 | -71.71959 | 37900 ft | 460 kts | 343° |
| 2026-05-05 21:08 | 2.67827 | -71.73898 | 37895 ft | 459 kts | 343° |
| 2026-05-05 21:08 | 2.73904 | -71.75836 | 37903 ft | 460 kts | 343° |
| 2026-05-05 21:09 | 2.79983 | -71.77774 | 37903 ft | 459 kts | 343° |
| 2026-05-05 21:09 | 2.86055 | -71.79712 | 37902 ft | 459 kts | 343° |
| 2026-05-05 21:10 | 2.92134 | -71.81650 | 37906 ft | 460 kts | 343° |
| 2026-05-05 21:10 | 2.98216 | -71.83590 | 37912 ft | 460 kts | 343° |
| 2026-05-05 21:11 | 3.04301 | -71.85531 | 37907 ft | 460 kts | 343° |
| 2026-05-05 21:11 | 3.10384 | -71.87472 | 37912 ft | 460 kts | 343° |
| 2026-05-05 21:12 | 3.16469 | -71.89414 | 37912 ft | 460 kts | 343° |
| 2026-05-05 21:12 | 3.22561 | -71.91358 | 37912 ft | 460 kts | 343° |
| 2026-05-05 21:13 | 3.28648 | -71.93301 | 37911 ft | 460 kts | 343° |
| 2026-05-05 21:13 | 3.34736 | -71.95244 | 37915 ft | 460 kts | 343° |
| 2026-05-05 21:14 | 3.40823 | -71.97188 | 37897 ft | 460 kts | 343° |
| 2026-05-05 21:14 | 3.46906 | -71.99130 | 37910 ft | 460 kts | 343° |
| 2026-05-05 21:15 | 3.52983 | -72.01070 | 37913 ft | 459 kts | 343° |
| 2026-05-05 21:15 | 3.59062 | -72.03012 | 37909 ft | 459 kts | 343° |
| 2026-05-05 21:16 | 3.65139 | -72.04954 | 37912 ft | 459 kts | 343° |
| 2026-05-05 21:16 | 3.71217 | -72.06895 | 37910 ft | 460 kts | 343° |
| 2026-05-05 21:17 | 3.77302 | -72.08840 | 37910 ft | 460 kts | 343° |
| 2026-05-05 21:17 | 3.83392 | -72.10786 | 37913 ft | 461 kts | 343° |
| 2026-05-05 21:18 | 3.89492 | -72.12735 | 37914 ft | 461 kts | 343° |
| 2026-05-05 21:18 | 3.95599 | -72.14687 | 37910 ft | 462 kts | 343° |
| 2026-05-05 21:19 | 4.01719 | -72.16642 | 37913 ft | 463 kts | 343° |
| 2026-05-05 21:19 | 4.07843 | -72.18599 | 37909 ft | 463 kts | 343° |
| 2026-05-05 21:20 | 4.13976 | -72.20558 | 37909 ft | 463 kts | 343° |
| 2026-05-05 21:20 | 4.20106 | -72.22518 | 37911 ft | 464 kts | 343° |
| 2026-05-05 21:21 | 4.26245 | -72.24480 | 37914 ft | 464 kts | 343° |
| 2026-05-05 21:21 | 4.32391 | -72.26446 | 37909 ft | 465 kts | 343° |
| 2026-05-05 21:22 | 4.38541 | -72.28412 | 37909 ft | 465 kts | 343° |
| 2026-05-05 21:22 | 4.44698 | -72.30381 | 37910 ft | 465 kts | 343° |
| 2026-05-05 21:23 | 4.50853 | -72.32350 | 37908 ft | 465 kts | 343° |
| 2026-05-05 21:23 | 4.57011 | -72.34321 | 37910 ft | 466 kts | 343° |
| 2026-05-05 21:24 | 4.63176 | -72.36294 | 37912 ft | 466 kts | 343° |
| 2026-05-05 21:24 | 4.69344 | -72.38268 | 37910 ft | 466 kts | 343° |
| 2026-05-05 21:25 | 4.75513 | -72.40243 | 37908 ft | 467 kts | 343° |
| 2026-05-05 21:25 | 4.81693 | -72.42221 | 37907 ft | 467 kts | 343° |
| 2026-05-05 21:26 | 4.87878 | -72.44202 | 37917 ft | 468 kts | 343° |
| 2026-05-05 21:26 | 4.94069 | -72.46185 | 37920 ft | 468 kts | 343° |
| 2026-05-05 21:27 | 5.00267 | -72.48171 | 37920 ft | 469 kts | 343° |
| 2026-05-05 21:27 | 5.06476 | -72.50160 | 37919 ft | 470 kts | 343° |
| 2026-05-05 21:28 | 5.12691 | -72.52152 | 37917 ft | 470 kts | 343° |
| 2026-05-05 21:28 | 5.18917 | -72.54148 | 37917 ft | 471 kts | 343° |
| 2026-05-05 21:29 | 5.25155 | -72.56149 | 37918 ft | 472 kts | 343° |
| 2026-05-05 21:29 | 5.31392 | -72.58149 | 37933 ft | 472 kts | 343° |
| 2026-05-05 21:30 | 5.37640 | -72.60153 | 37944 ft | 472 kts | 343° |
| 2026-05-05 21:30 | 5.43892 | -72.62159 | 37979 ft | 473 kts | 343° |
| 2026-05-05 21:31 | 5.50141 | -72.64164 | 38022 ft | 473 kts | 343° |
| 2026-05-05 21:31 | 5.56401 | -72.66174 | 38059 ft | 474 kts | 343° |
| 2026-05-05 21:32 | 5.62677 | -72.68189 | 38072 ft | 475 kts | 343° |
| 2026-05-05 21:32 | 5.68960 | -72.70206 | 38072 ft | 475 kts | 343° |
| 2026-05-05 21:33 | 5.75243 | -72.72224 | 38086 ft | 475 kts | 343° |
| 2026-05-05 21:33 | 5.81511 | -72.74238 | 38075 ft | 473 kts | 343° |
| 2026-05-05 21:34 | 5.87767 | -72.76249 | 38076 ft | 472 kts | 343° |
| 2026-05-05 21:34 | 5.94004 | -72.78253 | 38073 ft | 472 kts | 343° |
| 2026-05-05 21:35 | 6.00230 | -72.80255 | 38062 ft | 469 kts | 343° |
| 2026-05-05 21:35 | 6.06429 | -72.82248 | 38057 ft | 468 kts | 343° |
| 2026-05-05 21:36 | 6.12614 | -72.84238 | 38046 ft | 467 kts | 343° |
| 2026-05-05 21:36 | 6.18788 | -72.86224 | 38036 ft | 467 kts | 343° |
| 2026-05-05 21:37 | 6.24959 | -72.88210 | 38023 ft | 467 kts | 343° |
| 2026-05-05 21:37 | 6.31125 | -72.90225 | 38012 ft | 466 kts | 342° |
| 2026-05-05 21:38 | 6.37275 | -72.92263 | 37998 ft | 466 kts | 342° |
| 2026-05-05 21:38 | 6.43419 | -72.94296 | 37995 ft | 466 kts | 342° |
| 2026-05-05 21:39 | 6.49560 | -72.96329 | 37988 ft | 466 kts | 342° |
| 2026-05-05 21:39 | 6.55700 | -72.98362 | 37982 ft | 466 kts | 342° |
| 2026-05-05 21:40 | 6.61840 | -73.00395 | 37977 ft | 465 kts | 342° |
| 2026-05-05 21:40 | 6.67982 | -73.02430 | 37966 ft | 466 kts | 342° |
| 2026-05-05 21:41 | 6.74120 | -73.04464 | 37970 ft | 466 kts | 342° |
| 2026-05-05 21:41 | 6.80257 | -73.06498 | 37969 ft | 465 kts | 342° |
| 2026-05-05 21:42 | 6.86396 | -73.08533 | 37973 ft | 466 kts | 342° |
| 2026-05-05 21:42 | 6.92428 | -73.10886 | 37991 ft | 466 kts | 339° |
| 2026-05-05 21:43 | 6.98443 | -73.13282 | 37982 ft | 465 kts | 339° |
| 2026-05-05 21:43 | 7.04258 | -73.15584 | 37991 ft | 465 kts | 339° |
| 2026-05-05 21:45 | 7.06199 | -73.16351 | 37991 ft | 465 kts | 339° |
| 2026-05-05 21:45 | 7.12199 | -73.18726 | 37993 ft | 465 kts | 339° |
| 2026-05-05 21:46 | 7.18202 | -73.21103 | 37998 ft | 464 kts | 339° |
| 2026-05-05 21:46 | 7.24198 | -73.23477 | 37986 ft | 464 kts | 339° |
| 2026-05-05 21:47 | 7.30199 | -73.25855 | 37954 ft | 464 kts | 339° |
| 2026-05-05 21:47 | 7.36193 | -73.28230 | 37930 ft | 464 kts | 339° |
| 2026-05-05 21:48 | 7.42180 | -73.30603 | 37899 ft | 463 kts | 339° |
| 2026-05-05 21:48 | 7.48162 | -73.32975 | 37887 ft | 463 kts | 339° |
| 2026-05-05 21:49 | 7.54144 | -73.35347 | 37882 ft | 463 kts | 339° |
| 2026-05-05 21:49 | 7.60126 | -73.37721 | 37871 ft | 462 kts | 339° |
| 2026-05-05 21:50 | 7.66096 | -73.40090 | 37868 ft | 462 kts | 339° |
| 2026-05-05 21:50 | 7.72047 | -73.42496 | 37865 ft | 462 kts | 339° |
| 2026-05-05 21:51 | 7.77995 | -73.44920 | 37859 ft | 462 kts | 339° |
| 2026-05-05 21:51 | 7.83942 | -73.47343 | 37854 ft | 462 kts | 339° |
| 2026-05-05 21:52 | 7.92860 | -73.50977 | 37852 ft | 462 kts | 339° |
| 2026-05-05 21:53 | 7.98805 | -73.53400 | 37847 ft | 462 kts | 338° |
| 2026-05-05 21:53 | 8.04745 | -73.55823 | 37848 ft | 462 kts | 338° |
| 2026-05-05 21:54 | 8.10693 | -73.58249 | 37848 ft | 462 kts | 339° |
| 2026-05-05 21:54 | 8.16641 | -73.60676 | 37846 ft | 462 kts | 339° |
| 2026-05-05 21:55 | 8.22592 | -73.63110 | 37840 ft | 463 kts | 338° |
| 2026-05-05 21:55 | 8.28547 | -73.65548 | 37846 ft | 463 kts | 339° |
| 2026-05-05 21:56 | 8.34501 | -73.67986 | 37840 ft | 463 kts | 338° |
| 2026-05-05 21:56 | 8.40454 | -73.70424 | 37839 ft | 463 kts | 338° |
| 2026-05-05 21:57 | 8.46413 | -73.72866 | 37832 ft | 463 kts | 338° |
| 2026-05-05 21:57 | 8.52371 | -73.75308 | 37836 ft | 463 kts | 338° |
| 2026-05-05 21:58 | 8.58327 | -73.77750 | 37830 ft | 463 kts | 338° |
| 2026-05-05 21:58 | 8.64278 | -73.80191 | 37831 ft | 463 kts | 338° |
| 2026-05-05 21:59 | 8.70230 | -73.82634 | 37824 ft | 463 kts | 338° |
| 2026-05-05 21:59 | 8.76183 | -73.85077 | 37822 ft | 463 kts | 338° |
| 2026-05-05 22:00 | 8.82139 | -73.87522 | 37809 ft | 463 kts | 338° |
| 2026-05-05 22:00 | 8.88100 | -73.89970 | 37811 ft | 463 kts | 338° |
| 2026-05-05 22:01 | 8.94061 | -73.92420 | 37815 ft | 464 kts | 338° |
| 2026-05-05 22:01 | 9.00025 | -73.94870 | 37813 ft | 463 kts | 338° |
| 2026-05-05 22:01 | 9.03059 | -73.95944 | 37791 ft | 462 kts | 349° |
| 2026-05-05 22:02 | 9.06234 | -73.96224 | 37814 ft | 459 kts | 4° |
| 2026-05-05 22:02 | 9.12608 | -73.95615 | 37806 ft | 462 kts | 7° |
| 2026-05-05 22:03 | 9.18991 | -73.94849 | 37808 ft | 463 kts | 7° |
| 2026-05-05 22:03 | 9.25364 | -73.94034 | 37803 ft | 463 kts | 7° |
| 2026-05-05 22:04 | 9.31738 | -73.93211 | 37806 ft | 463 kts | 7° |
| 2026-05-05 22:04 | 9.38113 | -73.92388 | 37810 ft | 463 kts | 7° |
| 2026-05-05 22:05 | 9.44484 | -73.91565 | 37809 ft | 462 kts | 7° |
| 2026-05-05 22:05 | 9.50858 | -73.90741 | 37811 ft | 462 kts | 7° |
| 2026-05-05 22:06 | 9.57225 | -73.89918 | 37808 ft | 462 kts | 7° |
| 2026-05-05 22:06 | 9.63601 | -73.89094 | 37810 ft | 463 kts | 7° |
| 2026-05-05 22:07 | 9.69975 | -73.88269 | 37807 ft | 463 kts | 7° |
| 2026-05-05 22:07 | 9.76340 | -73.87445 | 37809 ft | 463 kts | 7° |
| 2026-05-05 22:08 | 9.82721 | -73.86619 | 37810 ft | 463 kts | 7° |
| 2026-05-05 22:08 | 9.89097 | -73.85792 | 37815 ft | 463 kts | 7° |
| 2026-05-05 22:09 | 9.95470 | -73.84967 | 37819 ft | 463 kts | 7° |
| 2026-05-05 22:09 | 10.01850 | -73.84140 | 37826 ft | 463 kts | 7° |
| 2026-05-05 22:10 | 10.08228 | -73.83312 | 37833 ft | 463 kts | 7° |
| 2026-05-05 22:10 | 10.14611 | -73.82484 | 37847 ft | 463 kts | 7° |
| 2026-05-05 22:11 | 10.20993 | -73.81656 | 37859 ft | 463 kts | 7° |
| 2026-05-05 22:11 | 10.27367 | -73.80828 | 37882 ft | 463 kts | 7° |
| 2026-05-05 22:12 | 10.33747 | -73.80000 | 37901 ft | 463 kts | 7° |
| 2026-05-05 22:12 | 10.40131 | -73.79170 | 37916 ft | 465 kts | 7° |
| 2026-05-05 22:12 | 10.43338 | -73.78753 | 38095 ft | 465 kts | 7° |
| 2026-05-05 22:13 | 10.46539 | -73.78337 | 38276 ft | 466 kts | 7° |
| 2026-05-05 22:13 | 10.49751 | -73.77919 | 38450 ft | 466 kts | 7° |
| 2026-05-05 22:13 | 10.52960 | -73.77502 | 38628 ft | 466 kts | 7° |
| 2026-05-05 22:13 | 10.56174 | -73.77083 | 38796 ft | 466 kts | 7° |
| 2026-05-05 22:14 | 10.59382 | -73.76666 | 38969 ft | 465 kts | 7° |
| 2026-05-05 22:14 | 10.65803 | -73.75830 | 39018 ft | 466 kts | 6° |
| 2026-05-05 22:15 | 10.72203 | -73.74997 | 39044 ft | 465 kts | 6° |
| 2026-05-05 22:15 | 10.78604 | -73.74163 | 39041 ft | 464 kts | 6° |
| 2026-05-05 22:16 | 10.85000 | -73.73328 | 39044 ft | 464 kts | 6° |
| 2026-05-05 22:16 | 10.91400 | -73.72492 | 39037 ft | 465 kts | 6° |
| 2026-05-05 22:17 | 10.97798 | -73.71656 | 39022 ft | 464 kts | 6° |
| 2026-05-05 22:17 | 11.04196 | -73.70819 | 39017 ft | 465 kts | 6° |
| 2026-05-05 22:18 | 11.10595 | -73.69983 | 38994 ft | 464 kts | 6° |
| 2026-05-05 22:18 | 11.16956 | -73.68942 | 38946 ft | 464 kts | 18° |
| 2026-05-05 22:18 | 11.19882 | -73.67586 | 38950 ft | 464 kts | 33° |
| 2026-05-05 22:19 | 11.22381 | -73.65517 | 38951 ft | 465 kts | 45° |
| 2026-05-05 22:19 | 11.26865 | -73.60751 | 38928 ft | 468 kts | 46° |
| 2026-05-05 22:20 | 11.31265 | -73.55873 | 38912 ft | 468 kts | 47° |
| 2026-05-05 22:20 | 11.35630 | -73.50964 | 38902 ft | 469 kts | 47° |
| 2026-05-05 22:21 | 11.40002 | -73.46038 | 38892 ft | 470 kts | 47° |
| 2026-05-05 22:21 | 11.44376 | -73.41106 | 38885 ft | 470 kts | 47° |
| 2026-05-05 22:22 | 11.48757 | -73.36163 | 38880 ft | 471 kts | 47° |
| 2026-05-05 22:22 | 11.53145 | -73.31212 | 38879 ft | 472 kts | 47° |
| 2026-05-05 22:23 | 11.57540 | -73.26248 | 38870 ft | 472 kts | 47° |
| 2026-05-05 22:23 | 11.61936 | -73.21282 | 38862 ft | 473 kts | 47° |
| 2026-05-05 22:24 | 11.66336 | -73.16308 | 38860 ft | 473 kts | 47° |
| 2026-05-05 22:24 | 11.70736 | -73.11332 | 38857 ft | 473 kts | 47° |
| 2026-05-05 22:25 | 11.75138 | -73.06351 | 38860 ft | 474 kts | 47° |
| 2026-05-05 22:25 | 11.79545 | -73.01361 | 38860 ft | 474 kts | 47° |
| 2026-05-05 22:26 | 11.83949 | -72.96374 | 38866 ft | 474 kts | 47° |
| 2026-05-05 22:26 | 11.88352 | -72.91383 | 38873 ft | 474 kts | 47° |
| 2026-05-05 22:27 | 11.92757 | -72.86390 | 38876 ft | 474 kts | 46° |
| 2026-05-05 22:27 | 11.97162 | -72.81391 | 38882 ft | 474 kts | 47° |
| 2026-05-05 22:28 | 12.01569 | -72.76390 | 38882 ft | 475 kts | 47° |
| 2026-05-05 22:28 | 12.05976 | -72.71385 | 38886 ft | 475 kts | 47° |
| 2026-05-05 22:29 | 12.10381 | -72.66380 | 38884 ft | 474 kts | 46° |
| 2026-05-05 22:29 | 12.14782 | -72.61376 | 38884 ft | 475 kts | 47° |
| 2026-05-05 22:30 | 12.19192 | -72.56360 | 38891 ft | 475 kts | 47° |
| 2026-05-05 22:30 | 12.23592 | -72.51352 | 38028 ft | 476 kts | 47° |
| 2026-05-05 22:30 | 12.25825 | -72.48810 | 36985 ft | 484 kts | 46° |
| 2026-05-05 22:31 | 12.28049 | -72.46276 | 36539 ft | 477 kts | 46° |
| 2026-05-05 22:31 | 12.30253 | -72.43767 | 36022 ft | 473 kts | 46° |
| 2026-05-05 22:31 | 12.32440 | -72.41274 | 35482 ft | 470 kts | 46° |
| 2026-05-05 22:31 | 12.34614 | -72.38796 | 34963 ft | 467 kts | 46° |
| 2026-05-05 22:32 | 12.36774 | -72.36333 | 34465 ft | 464 kts | 46° |
| 2026-05-05 22:32 | 12.38920 | -72.33886 | 33961 ft | 462 kts | 46° |
| 2026-05-05 22:32 | 12.41057 | -72.31449 | 33385 ft | 460 kts | 46° |
| 2026-05-05 22:32 | 12.43181 | -72.29025 | 32856 ft | 457 kts | 46° |
| 2026-05-05 22:33 | 12.45288 | -72.26620 | 32364 ft | 453 kts | 46° |
| 2026-05-05 22:33 | 12.47378 | -72.24234 | 31878 ft | 450 kts | 46° |
| 2026-05-05 22:33 | 12.49454 | -72.21863 | 31393 ft | 447 kts | 46° |
| 2026-05-05 22:33 | 12.51520 | -72.19505 | 30910 ft | 444 kts | 46° |
| 2026-05-05 22:34 | 12.53566 | -72.17166 | 30435 ft | 441 kts | 45° |
| 2026-05-05 22:34 | 12.55605 | -72.14836 | 29952 ft | 439 kts | 46° |
| 2026-05-05 22:34 | 12.57628 | -72.12524 | 29411 ft | 436 kts | 45° |
| 2026-05-05 22:34 | 12.59636 | -72.10226 | 28913 ft | 432 kts | 46° |
| 2026-05-05 22:35 | 12.61627 | -72.07950 | 28465 ft | 427 kts | 46° |
| 2026-05-05 22:35 | 12.63597 | -72.05697 | 28022 ft | 423 kts | 46° |
| 2026-05-05 22:35 | 12.65548 | -72.03465 | 27574 ft | 420 kts | 46° |
| 2026-05-05 22:35 | 12.67477 | -72.01257 | 27128 ft | 416 kts | 46° |
| 2026-05-05 22:36 | 12.69400 | -71.99057 | 26697 ft | 413 kts | 46° |
| 2026-05-05 22:36 | 12.71302 | -71.96878 | 26270 ft | 410 kts | 46° |
| 2026-05-05 22:36 | 12.73191 | -71.94716 | 25835 ft | 407 kts | 46° |
| 2026-05-05 22:36 | 12.75064 | -71.92570 | 25401 ft | 404 kts | 46° |
| 2026-05-05 22:37 | 12.76930 | -71.90431 | 24987 ft | 402 kts | 46° |
| 2026-05-05 22:37 | 12.78782 | -71.88306 | 24568 ft | 400 kts | 47° |
| 2026-05-05 22:37 | 12.80313 | -71.85928 | 23995 ft | 406 kts | 65° |
| 2026-05-05 22:37 | 12.80993 | -71.83137 | 23580 ft | 408 kts | 84° |
| 2026-05-05 22:38 | 12.80829 | -71.80253 | 23155 ft | 407 kts | 97° |
| 2026-05-05 22:38 | 12.80408 | -71.77404 | 22704 ft | 404 kts | 97° |
| 2026-05-05 22:38 | 12.79979 | -71.74583 | 22292 ft | 400 kts | 97° |
| 2026-05-05 22:38 | 12.79540 | -71.71788 | 21888 ft | 396 kts | 98° |
| 2026-05-05 22:39 | 12.79099 | -71.69025 | 21494 ft | 392 kts | 98° |
| 2026-05-05 22:39 | 12.78659 | -71.66285 | 21097 ft | 389 kts | 98° |
| 2026-05-05 22:39 | 12.78221 | -71.63570 | 20720 ft | 385 kts | 99° |
| 2026-05-05 22:39 | 12.77787 | -71.60879 | 20340 ft | 382 kts | 99° |
| 2026-05-05 22:40 | 12.77358 | -71.58218 | 19968 ft | 378 kts | 99° |
| 2026-05-05 22:40 | 12.76932 | -71.55581 | 19596 ft | 375 kts | 99° |
| 2026-05-05 22:40 | 12.76509 | -71.52964 | 19225 ft | 371 kts | 99° |
| 2026-05-05 22:40 | 12.76090 | -71.50371 | 18877 ft | 368 kts | 100° |
| 2026-05-05 22:41 | 12.75676 | -71.47807 | 18521 ft | 364 kts | 100° |
| 2026-05-05 22:41 | 12.75264 | -71.45266 | 18168 ft | 361 kts | 100° |
| 2026-05-05 22:41 | 12.74856 | -71.42745 | 17778 ft | 357 kts | 100° |
| 2026-05-05 22:41 | 12.74453 | -71.40255 | 17429 ft | 353 kts | 100° |
| 2026-05-05 22:42 | 12.74054 | -71.37794 | 17090 ft | 348 kts | 100° |
| 2026-05-05 22:42 | 12.73661 | -71.35367 | 16760 ft | 344 kts | 100° |
| 2026-05-05 22:42 | 12.73272 | -71.32973 | 16438 ft | 339 kts | 100° |
| 2026-05-05 22:42 | 12.72888 | -71.30610 | 16127 ft | 335 kts | 100° |
| 2026-05-05 22:43 | 12.72509 | -71.28277 | 15814 ft | 331 kts | 100° |
| 2026-05-05 22:43 | 12.72134 | -71.25971 | 15502 ft | 327 kts | 99° |
| 2026-05-05 22:43 | 12.71763 | -71.23693 | 15192 ft | 323 kts | 100° |
| 2026-05-05 22:43 | 12.71397 | -71.21442 | 14900 ft | 319 kts | 99° |
| 2026-05-05 22:44 | 12.71034 | -71.19215 | 14604 ft | 316 kts | 99° |
| 2026-05-05 22:44 | 12.70676 | -71.17017 | 14314 ft | 312 kts | 99° |
| 2026-05-05 22:44 | 12.70321 | -71.14839 | 14021 ft | 309 kts | 99° |
| 2026-05-05 22:44 | 12.69970 | -71.12689 | 13735 ft | 305 kts | 99° |
| 2026-05-05 22:45 | 12.69621 | -71.10556 | 13424 ft | 302 kts | 99° |
| 2026-05-05 22:45 | 12.69278 | -71.08455 | 13126 ft | 298 kts | 99° |
| 2026-05-05 22:45 | 12.68938 | -71.06378 | 12847 ft | 294 kts | 99° |
| 2026-05-05 22:45 | 12.68603 | -71.04327 | 12571 ft | 290 kts | 99° |
| 2026-05-05 22:46 | 12.68273 | -71.02306 | 12308 ft | 287 kts | 100° |
| 2026-05-05 22:46 | 12.67943 | -71.00291 | 12037 ft | 290 kts | 100° |
| 2026-05-05 22:46 | 12.67607 | -70.98240 | 11757 ft | 295 kts | 100° |
| 2026-05-05 22:46 | 12.67268 | -70.96167 | 11475 ft | 296 kts | 100° |
| 2026-05-05 22:47 | 12.66929 | -70.94100 | 11205 ft | 293 kts | 101° |
| 2026-05-05 22:47 | 12.66594 | -70.92057 | 10945 ft | 290 kts | 101° |
| 2026-05-05 22:47 | 12.66263 | -70.90041 | 10675 ft | 286 kts | 101° |
| 2026-05-05 22:47 | 12.65936 | -70.88044 | 10407 ft | 283 kts | 101° |
| 2026-05-05 22:48 | 12.65615 | -70.86087 | 10264 ft | 275 kts | 101° |
| 2026-05-05 22:48 | 12.65304 | -70.84193 | 10147 ft | 266 kts | 101° |
| 2026-05-05 22:48 | 12.65002 | -70.82358 | 10029 ft | 258 kts | 101° |
| 2026-05-05 22:48 | 12.64708 | -70.80568 | 9836 ft | 256 kts | 101° |
| 2026-05-05 22:49 | 12.64408 | -70.78751 | 9572 ft | 263 kts | 101° |
| 2026-05-05 22:49 | 12.64102 | -70.76893 | 9319 ft | 267 kts | 101° |
| 2026-05-05 22:49 | 12.63795 | -70.75025 | 9068 ft | 267 kts | 101° |
| 2026-05-05 22:49 | 12.63487 | -70.73156 | 8815 ft | 266 kts | 102° |
| 2026-05-05 22:50 | 12.63180 | -70.71291 | 8567 ft | 266 kts | 102° |
| 2026-05-05 22:50 | 12.62873 | -70.69426 | 8320 ft | 266 kts | 102° |
| 2026-05-05 22:50 | 12.62566 | -70.67568 | 8068 ft | 265 kts | 102° |
| 2026-05-05 22:50 | 12.62260 | -70.65712 | 7826 ft | 265 kts | 102° |
| 2026-05-05 22:51 | 12.61953 | -70.63855 | 7578 ft | 264 kts | 102° |
| 2026-05-05 22:51 | 12.61647 | -70.62006 | 7334 ft | 264 kts | 102° |
| 2026-05-05 22:51 | 12.61343 | -70.60163 | 7089 ft | 263 kts | 102° |
| 2026-05-05 22:51 | 12.61039 | -70.58321 | 6847 ft | 263 kts | 102° |
| 2026-05-05 22:52 | 12.60734 | -70.56483 | 6604 ft | 262 kts | 102° |
| 2026-05-05 22:52 | 12.60432 | -70.54654 | 6381 ft | 261 kts | 102° |
| 2026-05-05 22:52 | 12.60130 | -70.52830 | 6144 ft | 260 kts | 103° |
| 2026-05-05 22:52 | 12.59829 | -70.51012 | 5889 ft | 259 kts | 102° |
| 2026-05-05 22:53 | 12.59530 | -70.49208 | 5646 ft | 256 kts | 102° |
| 2026-05-05 22:53 | 12.59236 | -70.47431 | 5425 ft | 252 kts | 102° |
| 2026-05-05 22:53 | 12.58945 | -70.45677 | 5183 ft | 248 kts | 102° |
| 2026-05-05 22:53 | 12.58659 | -70.43955 | 4967 ft | 244 kts | 102° |
| 2026-05-05 22:54 | 12.58377 | -70.42255 | 4733 ft | 240 kts | 102° |
| 2026-05-05 22:54 | 12.58099 | -70.40583 | 4499 ft | 237 kts | 102° |
| 2026-05-05 22:54 | 12.57825 | -70.38933 | 4278 ft | 234 kts | 102° |
| 2026-05-05 22:54 | 12.57560 | -70.37334 | 4188 ft | 224 kts | 102° |
| 2026-05-05 22:55 | 12.57306 | -70.35794 | 4067 ft | 215 kts | 102° |
| 2026-05-05 22:55 | 12.57059 | -70.34316 | 3950 ft | 207 kts | 101° |
| 2026-05-05 22:55 | 12.56824 | -70.32896 | 3833 ft | 199 kts | 102° |
| 2026-05-05 22:55 | 12.56597 | -70.31532 | 3715 ft | 190 kts | 101° |
| 2026-05-05 22:56 | 12.56379 | -70.30223 | 3600 ft | 185 kts | 101° |
| 2026-05-05 22:56 | 12.56164 | -70.28933 | 3486 ft | 184 kts | 101° |
| 2026-05-05 22:56 | 12.55952 | -70.27657 | 3392 ft | 181 kts | 100° |
| 2026-05-05 22:56 | 12.55742 | -70.26398 | 3291 ft | 177 kts | 100° |
| 2026-05-05 22:57 | 12.55542 | -70.25202 | 3185 ft | 166 kts | 100° |
| 2026-05-05 22:57 | 12.55350 | -70.24050 | 2945 ft | 163 kts | 101° |
| 2026-05-05 22:57 | 12.55161 | -70.22919 | 2696 ft | 160 kts | 99° |
| 2026-05-05 22:57 | 12.54958 | -70.21819 | 2522 ft | 153 kts | 103° |
| 2026-05-05 22:58 | 12.54719 | -70.20819 | 2469 ft | 138 kts | 103° |
| 2026-05-05 22:58 | 12.54495 | -70.19881 | 2482 ft | 137 kts | 103° |
| 2026-05-05 22:58 | 12.54266 | -70.18914 | 2512 ft | 142 kts | 101° |
| 2026-05-05 22:58 | 12.54032 | -70.17929 | 2505 ft | 143 kts | 101° |
| 2026-05-05 22:59 | 12.53802 | -70.16953 | 2508 ft | 140 kts | 101° |
| 2026-05-05 22:59 | 12.53577 | -70.15995 | 2487 ft | 138 kts | 102° |
| 2026-05-05 22:59 | 12.53354 | -70.15044 | 2406 ft | 137 kts | 101° |
| 2026-05-05 22:59 | 12.53133 | -70.14104 | 2223 ft | 136 kts | 102° |
| 2026-05-05 23:00 | 12.52685 | -70.12212 | 1913 ft | 138 kts | 102° |
| 2026-05-05 23:00 | 12.52458 | -70.11256 | 1698 ft | 139 kts | 102° |
| 2026-05-05 23:00 | 12.52230 | -70.10301 | 1506 ft | 139 kts | 102° |
| 2026-05-05 23:01 | 12.52006 | -70.09361 | 1348 ft | 133 kts | 101° |
| 2026-05-05 23:01 | 12.51792 | -70.08464 | 1178 ft | 127 kts | 101° |
| 2026-05-05 23:01 | 12.51587 | -70.07601 | 993 ft | 124 kts | 101° |
| 2026-05-05 23:01 | 12.51378 | -70.06737 | 751 ft | 128 kts | 98° |
| 2026-05-05 23:02 | 12.51165 | -70.05838 | 507 ft | 133 kts | 98° |
| 2026-05-05 23:02 | 12.50940 | -70.04907 | 390 ft | 137 kts | 98° |
| 2026-05-05 23:02 | 12.50729 | -70.03972 | 205 ft | 134 kts | 98° |
| 2026-05-05 23:02 | 12.50502 | -70.03053 | 79 ft | 133 kts | 100° |
| 2026-05-05 23:03 | 12.50299 | -70.02192 | 45 ft | 111 kts | 98° |
| 2026-05-05 23:03 | 12.50169 | -70.01635 | 48 ft | 45 kts | 110° |
| 2026-05-05 23:03 | 12.50139 | -70.01524 | 49 ft | 1 kts | 104° |
| 2026-05-05 23:03 | 12.50128 | -70.01478 | 49 ft | 12 kts | 103° |
| 2026-05-05 23:04 | 12.50156 | -70.01406 | 50 ft | 13 kts | 27° |
| 2026-05-05 23:04 | 12.50242 | -70.01378 | 46 ft | 12 kts | 21° |
| 2026-05-05 23:04 | 12.50266 | -70.01307 | 46 ft | 12 kts | 103° |
| 2026-05-05 23:04 | 12.50245 | -70.01214 | 49 ft | 14 kts | 103° |
| 2026-05-05 23:05 | 12.50238 | -70.01119 | 49 ft | 13 kts | 61° |
| 2026-05-05 23:05 | 12.50255 | -70.01029 | 49 ft | 14 kts | 104° |
| 2026-05-05 23:05 | 12.50231 | -70.00933 | 49 ft | 13 kts | 103° |
| 2026-05-05 23:05 | 12.50209 | -70.00837 | 49 ft | 15 kts | 104° |
| 2026-05-05 23:06 | 12.50184 | -70.00735 | 49 ft | 14 kts | 103° |
| 2026-05-05 23:06 | 12.50173 | -70.00660 | 49 ft | 7 kts | 57° |
| 2026-05-05 23:06 | 12.50209 | -70.00655 | 49 ft | 5 kts | 11° |
| 2026-05-05 23:06 | 12.50240 | -70.00646 | 48 ft | 0 kts | 15° |
| 2026-05-05 23:07 | 12.50247 | -70.00644 | 49 ft | 1 kts | 16° |
| 2026-05-05 23:07 | 12.50250 | -70.00643 | 49 ft | 0 kts | 16° |